<?xml version="1.0" encoding="UTF-8" standalone="no" ?>
<gpx xmlns="http://www.topografix.com/GPX/1/1" xmlns:xsi="http://www.w3.org/2001/XMLSchema-instance" xsi:schemaLocation="http://www.topografix.com/GPX/1/1 http://www.topografix.com/GPX/1/1/gpx.xsd" version="1.1" creator="VisuGPX - https://www.visugpx.com">
  <metadata>
    <name>mtp_montarnaud</name>
  </metadata>
  <trk>
    <name><![CDATA[mtp_montarnaud]]></name>
    <extensions>
      <line xmlns="http://www.topografix.com/GPX/gpx_style/0/2">
        <color>0000FF</color>
        <width>4</width>
      </line>
    </extensions>
    <trkseg>
      <trkpt lat="43.61127" lon="3.82866">
        <ele>57.5</ele>
        <time>2022-03-19T07:41:58Z</time>
      </trkpt>
      <trkpt lat="43.61168" lon="3.82841">
        <ele>56.2</ele>
        <time>2022-03-19T07:42:08Z</time>
      </trkpt>
      <trkpt lat="43.6117" lon="3.82767">
        <ele>55.3</ele>
        <time>2022-03-19T07:42:18Z</time>
      </trkpt>
      <trkpt lat="43.61181" lon="3.82701">
        <ele>54.9</ele>
        <time>2022-03-19T07:42:28Z</time>
      </trkpt>
      <trkpt lat="43.6119" lon="3.8263">
        <ele>54.8</ele>
        <time>2022-03-19T07:42:38Z</time>
      </trkpt>
      <trkpt lat="43.61201" lon="3.8256">
        <ele>53.8</ele>
        <time>2022-03-19T07:42:48Z</time>
      </trkpt>
      <trkpt lat="43.61232" lon="3.82528">
        <ele>53</ele>
        <time>2022-03-19T07:42:58Z</time>
      </trkpt>
      <trkpt lat="43.61261" lon="3.8251">
        <ele>51.2</ele>
        <time>2022-03-19T07:43:08Z</time>
      </trkpt>
      <trkpt lat="43.61303" lon="3.82461">
        <ele>50.5</ele>
        <time>2022-03-19T07:43:18Z</time>
      </trkpt>
      <trkpt lat="43.61309" lon="3.82391">
        <ele>49.1</ele>
        <time>2022-03-19T07:43:28Z</time>
      </trkpt>
      <trkpt lat="43.61316" lon="3.82315">
        <ele>50.9</ele>
        <time>2022-03-19T07:43:38Z</time>
      </trkpt>
      <trkpt lat="43.61351" lon="3.82277">
        <ele>48.1</ele>
        <time>2022-03-19T07:43:48Z</time>
      </trkpt>
      <trkpt lat="43.61386" lon="3.82256">
        <ele>45.3</ele>
        <time>2022-03-19T07:43:58Z</time>
      </trkpt>
      <trkpt lat="43.61437" lon="3.82223">
        <ele>43.1</ele>
        <time>2022-03-19T07:44:08Z</time>
      </trkpt>
      <trkpt lat="43.61494" lon="3.82208">
        <ele>43.9</ele>
        <time>2022-03-19T07:44:18Z</time>
      </trkpt>
      <trkpt lat="43.61525" lon="3.82189">
        <ele>43.8</ele>
        <time>2022-03-19T07:44:28Z</time>
      </trkpt>
      <trkpt lat="43.6154" lon="3.82169">
        <ele>43.2</ele>
        <time>2022-03-19T07:44:38Z</time>
      </trkpt>
      <trkpt lat="43.61547" lon="3.82099">
        <ele>42.9</ele>
        <time>2022-03-19T07:44:48Z</time>
      </trkpt>
      <trkpt lat="43.61554" lon="3.82029">
        <ele>40.1</ele>
        <time>2022-03-19T07:44:58Z</time>
      </trkpt>
      <trkpt lat="43.61573" lon="3.81976">
        <ele>39.6</ele>
        <time>2022-03-19T07:45:08Z</time>
      </trkpt>
      <trkpt lat="43.6159" lon="3.81945">
        <ele>39.3</ele>
        <time>2022-03-19T07:45:18Z</time>
      </trkpt>
      <trkpt lat="43.61574" lon="3.8188">
        <ele>38.1</ele>
        <time>2022-03-19T07:45:28Z</time>
      </trkpt>
      <trkpt lat="43.61553" lon="3.81805">
        <ele>37</ele>
        <time>2022-03-19T07:45:38Z</time>
      </trkpt>
      <trkpt lat="43.61536" lon="3.81742">
        <ele>35.5</ele>
        <time>2022-03-19T07:45:48Z</time>
      </trkpt>
      <trkpt lat="43.61521" lon="3.81682">
        <ele>33.9</ele>
        <time>2022-03-19T07:45:58Z</time>
      </trkpt>
      <trkpt lat="43.61503" lon="3.81612">
        <ele>38.1</ele>
        <time>2022-03-19T07:46:08Z</time>
      </trkpt>
      <trkpt lat="43.61491" lon="3.81545">
        <ele>39.5</ele>
        <time>2022-03-19T07:46:18Z</time>
      </trkpt>
      <trkpt lat="43.6147" lon="3.81519">
        <ele>40.2</ele>
        <time>2022-03-19T07:46:28Z</time>
      </trkpt>
      <trkpt lat="43.61457" lon="3.81477">
        <ele>41.7</ele>
        <time>2022-03-19T07:46:38Z</time>
      </trkpt>
      <trkpt lat="43.61444" lon="3.8143">
        <ele>42.5</ele>
        <time>2022-03-19T07:46:48Z</time>
      </trkpt>
      <trkpt lat="43.61429" lon="3.81374">
        <ele>43.6</ele>
        <time>2022-03-19T07:46:58Z</time>
      </trkpt>
      <trkpt lat="43.61416" lon="3.81318">
        <ele>44.5</ele>
        <time>2022-03-19T07:47:08Z</time>
      </trkpt>
      <trkpt lat="43.61406" lon="3.81262">
        <ele>46.2</ele>
        <time>2022-03-19T07:47:18Z</time>
      </trkpt>
      <trkpt lat="43.61405" lon="3.81208">
        <ele>47.4</ele>
        <time>2022-03-19T07:47:28Z</time>
      </trkpt>
      <trkpt lat="43.61407" lon="3.81157">
        <ele>48.7</ele>
        <time>2022-03-19T07:47:38Z</time>
      </trkpt>
      <trkpt lat="43.61405" lon="3.81107">
        <ele>49.6</ele>
        <time>2022-03-19T07:47:48Z</time>
      </trkpt>
      <trkpt lat="43.61418" lon="3.81066">
        <ele>50.7</ele>
        <time>2022-03-19T07:47:58Z</time>
      </trkpt>
      <trkpt lat="43.61398" lon="3.81026">
        <ele>51.3</ele>
        <time>2022-03-19T07:48:08Z</time>
      </trkpt>
      <trkpt lat="43.6139" lon="3.80983">
        <ele>51.7</ele>
        <time>2022-03-19T07:48:18Z</time>
      </trkpt>
      <trkpt lat="43.61388" lon="3.80932">
        <ele>53.4</ele>
        <time>2022-03-19T07:48:28Z</time>
      </trkpt>
      <trkpt lat="43.61383" lon="3.80878">
        <ele>55</ele>
        <time>2022-03-19T07:48:38Z</time>
      </trkpt>
      <trkpt lat="43.6138" lon="3.80823">
        <ele>54.3</ele>
        <time>2022-03-19T07:48:48Z</time>
      </trkpt>
      <trkpt lat="43.6138" lon="3.80763">
        <ele>54.5</ele>
        <time>2022-03-19T07:48:58Z</time>
      </trkpt>
      <trkpt lat="43.61387" lon="3.80703">
        <ele>54.9</ele>
        <time>2022-03-19T07:49:08Z</time>
      </trkpt>
      <trkpt lat="43.61393" lon="3.80643">
        <ele>55.1</ele>
        <time>2022-03-19T07:49:18Z</time>
      </trkpt>
      <trkpt lat="43.61396" lon="3.80582">
        <ele>56.3</ele>
        <time>2022-03-19T07:49:28Z</time>
      </trkpt>
      <trkpt lat="43.61395" lon="3.80528">
        <ele>57.8</ele>
        <time>2022-03-19T07:49:38Z</time>
      </trkpt>
      <trkpt lat="43.61399" lon="3.80477">
        <ele>58</ele>
        <time>2022-03-19T07:49:48Z</time>
      </trkpt>
      <trkpt lat="43.61403" lon="3.80428">
        <ele>58.8</ele>
        <time>2022-03-19T07:49:58Z</time>
      </trkpt>
      <trkpt lat="43.61407" lon="3.80382">
        <ele>59.9</ele>
        <time>2022-03-19T07:50:08Z</time>
      </trkpt>
      <trkpt lat="43.6141" lon="3.80334">
        <ele>60.5</ele>
        <time>2022-03-19T07:50:18Z</time>
      </trkpt>
      <trkpt lat="43.61415" lon="3.80288">
        <ele>61.1</ele>
        <time>2022-03-19T07:50:28Z</time>
      </trkpt>
      <trkpt lat="43.61422" lon="3.80239">
        <ele>62.3</ele>
        <time>2022-03-19T07:50:38Z</time>
      </trkpt>
      <trkpt lat="43.61429" lon="3.80186">
        <ele>63.3</ele>
        <time>2022-03-19T07:50:48Z</time>
      </trkpt>
      <trkpt lat="43.61438" lon="3.80137">
        <ele>64.1</ele>
        <time>2022-03-19T07:50:58Z</time>
      </trkpt>
      <trkpt lat="43.61449" lon="3.80092">
        <ele>65.1</ele>
        <time>2022-03-19T07:51:08Z</time>
      </trkpt>
      <trkpt lat="43.61467" lon="3.80057">
        <ele>66</ele>
        <time>2022-03-19T07:51:18Z</time>
      </trkpt>
      <trkpt lat="43.61453" lon="3.8003">
        <ele>66.3</ele>
        <time>2022-03-19T07:51:28Z</time>
      </trkpt>
      <trkpt lat="43.61426" lon="3.79975">
        <ele>63.5</ele>
        <time>2022-03-19T07:51:38Z</time>
      </trkpt>
      <trkpt lat="43.61389" lon="3.79897">
        <ele>63</ele>
        <time>2022-03-19T07:51:48Z</time>
      </trkpt>
      <trkpt lat="43.61391" lon="3.79845">
        <ele>62</ele>
        <time>2022-03-19T07:51:58Z</time>
      </trkpt>
      <trkpt lat="43.61407" lon="3.79767">
        <ele>59.4</ele>
        <time>2022-03-19T07:52:08Z</time>
      </trkpt>
      <trkpt lat="43.61433" lon="3.7968">
        <ele>56.5</ele>
        <time>2022-03-19T07:52:18Z</time>
      </trkpt>
      <trkpt lat="43.61453" lon="3.79585">
        <ele>53.3</ele>
        <time>2022-03-19T07:52:28Z</time>
      </trkpt>
      <trkpt lat="43.61457" lon="3.79501">
        <ele>52.5</ele>
        <time>2022-03-19T07:52:38Z</time>
      </trkpt>
      <trkpt lat="43.61464" lon="3.7943">
        <ele>52.7</ele>
        <time>2022-03-19T07:52:48Z</time>
      </trkpt>
      <trkpt lat="43.61479" lon="3.79367">
        <ele>52.5</ele>
        <time>2022-03-19T07:52:58Z</time>
      </trkpt>
      <trkpt lat="43.61498" lon="3.79309">
        <ele>54</ele>
        <time>2022-03-19T07:53:08Z</time>
      </trkpt>
      <trkpt lat="43.61514" lon="3.79252">
        <ele>54.5</ele>
        <time>2022-03-19T07:53:18Z</time>
      </trkpt>
      <trkpt lat="43.61529" lon="3.79196">
        <ele>54.2</ele>
        <time>2022-03-19T07:53:28Z</time>
      </trkpt>
      <trkpt lat="43.61542" lon="3.79148">
        <ele>56.2</ele>
        <time>2022-03-19T07:53:38Z</time>
      </trkpt>
      <trkpt lat="43.61551" lon="3.79102">
        <ele>55.9</ele>
        <time>2022-03-19T07:53:48Z</time>
      </trkpt>
      <trkpt lat="43.6156" lon="3.79058">
        <ele>57.5</ele>
        <time>2022-03-19T07:53:58Z</time>
      </trkpt>
      <trkpt lat="43.61566" lon="3.79016">
        <ele>58.7</ele>
        <time>2022-03-19T07:54:08Z</time>
      </trkpt>
      <trkpt lat="43.61565" lon="3.78969">
        <ele>58.6</ele>
        <time>2022-03-19T07:54:18Z</time>
      </trkpt>
      <trkpt lat="43.61558" lon="3.78923">
        <ele>57</ele>
        <time>2022-03-19T07:54:28Z</time>
      </trkpt>
      <trkpt lat="43.6155" lon="3.78884">
        <ele>58.3</ele>
        <time>2022-03-19T07:54:38Z</time>
      </trkpt>
      <trkpt lat="43.61547" lon="3.78844">
        <ele>60.2</ele>
        <time>2022-03-19T07:54:48Z</time>
      </trkpt>
      <trkpt lat="43.6155" lon="3.78804">
        <ele>59.6</ele>
        <time>2022-03-19T07:54:58Z</time>
      </trkpt>
      <trkpt lat="43.61567" lon="3.78772">
        <ele>59.3</ele>
        <time>2022-03-19T07:55:08Z</time>
      </trkpt>
      <trkpt lat="43.61578" lon="3.78755">
        <ele>59.7</ele>
        <time>2022-03-19T07:55:18Z</time>
      </trkpt>
      <trkpt lat="43.61586" lon="3.78736">
        <ele>61.4</ele>
        <time>2022-03-19T07:55:28Z</time>
      </trkpt>
      <trkpt lat="43.61597" lon="3.78717">
        <ele>63.6</ele>
        <time>2022-03-19T07:55:38Z</time>
      </trkpt>
      <trkpt lat="43.61609" lon="3.78697">
        <ele>64.1</ele>
        <time>2022-03-19T07:55:48Z</time>
      </trkpt>
      <trkpt lat="43.61622" lon="3.78678">
        <ele>66.1</ele>
        <time>2022-03-19T07:55:58Z</time>
      </trkpt>
      <trkpt lat="43.61631" lon="3.78661">
        <ele>67.6</ele>
        <time>2022-03-19T07:56:08Z</time>
      </trkpt>
      <trkpt lat="43.61647" lon="3.78643">
        <ele>68.8</ele>
        <time>2022-03-19T07:56:18Z</time>
      </trkpt>
      <trkpt lat="43.61659" lon="3.78627">
        <ele>69.8</ele>
        <time>2022-03-19T07:56:28Z</time>
      </trkpt>
      <trkpt lat="43.6167" lon="3.78612">
        <ele>70.8</ele>
        <time>2022-03-19T07:56:38Z</time>
      </trkpt>
      <trkpt lat="43.61676" lon="3.78597">
        <ele>72.5</ele>
        <time>2022-03-19T07:56:48Z</time>
      </trkpt>
      <trkpt lat="43.61685" lon="3.78578">
        <ele>74.2</ele>
        <time>2022-03-19T07:56:58Z</time>
      </trkpt>
      <trkpt lat="43.61695" lon="3.78559">
        <ele>75.6</ele>
        <time>2022-03-19T07:57:08Z</time>
      </trkpt>
      <trkpt lat="43.61704" lon="3.78541">
        <ele>77</ele>
        <time>2022-03-19T07:57:18Z</time>
      </trkpt>
      <trkpt lat="43.61712" lon="3.78523">
        <ele>78.4</ele>
        <time>2022-03-19T07:57:28Z</time>
      </trkpt>
      <trkpt lat="43.61718" lon="3.78501">
        <ele>80.1</ele>
        <time>2022-03-19T07:57:38Z</time>
      </trkpt>
      <trkpt lat="43.61725" lon="3.78479">
        <ele>80.6</ele>
        <time>2022-03-19T07:57:48Z</time>
      </trkpt>
      <trkpt lat="43.61729" lon="3.78446">
        <ele>81.2</ele>
        <time>2022-03-19T07:57:58Z</time>
      </trkpt>
      <trkpt lat="43.61725" lon="3.784">
        <ele>80.4</ele>
        <time>2022-03-19T07:58:08Z</time>
      </trkpt>
      <trkpt lat="43.61716" lon="3.78333">
        <ele>79.7</ele>
        <time>2022-03-19T07:58:18Z</time>
      </trkpt>
      <trkpt lat="43.61722" lon="3.78286">
        <ele>80.7</ele>
        <time>2022-03-19T07:58:28Z</time>
      </trkpt>
      <trkpt lat="43.6173" lon="3.78244">
        <ele>82.5</ele>
        <time>2022-03-19T07:58:38Z</time>
      </trkpt>
      <trkpt lat="43.61741" lon="3.78199">
        <ele>82.9</ele>
        <time>2022-03-19T07:58:48Z</time>
      </trkpt>
      <trkpt lat="43.61751" lon="3.78152">
        <ele>84.4</ele>
        <time>2022-03-19T07:58:58Z</time>
      </trkpt>
      <trkpt lat="43.61766" lon="3.78109">
        <ele>84.9</ele>
        <time>2022-03-19T07:59:08Z</time>
      </trkpt>
      <trkpt lat="43.61789" lon="3.78072">
        <ele>85.6</ele>
        <time>2022-03-19T07:59:18Z</time>
      </trkpt>
      <trkpt lat="43.61818" lon="3.78036">
        <ele>85.5</ele>
        <time>2022-03-19T07:59:28Z</time>
      </trkpt>
      <trkpt lat="43.61832" lon="3.77993">
        <ele>87.3</ele>
        <time>2022-03-19T07:59:38Z</time>
      </trkpt>
      <trkpt lat="43.61838" lon="3.77951">
        <ele>89.4</ele>
        <time>2022-03-19T07:59:48Z</time>
      </trkpt>
      <trkpt lat="43.61839" lon="3.7791">
        <ele>90.6</ele>
        <time>2022-03-19T07:59:58Z</time>
      </trkpt>
      <trkpt lat="43.61836" lon="3.77871">
        <ele>90.8</ele>
        <time>2022-03-19T08:00:08Z</time>
      </trkpt>
      <trkpt lat="43.61819" lon="3.77863">
        <ele>92.5</ele>
        <time>2022-03-19T08:00:18Z</time>
      </trkpt>
      <trkpt lat="43.61798" lon="3.77861">
        <ele>94.3</ele>
        <time>2022-03-19T08:00:28Z</time>
      </trkpt>
      <trkpt lat="43.61793" lon="3.77832">
        <ele>96.3</ele>
        <time>2022-03-19T08:00:38Z</time>
      </trkpt>
      <trkpt lat="43.618" lon="3.77798">
        <ele>96</ele>
        <time>2022-03-19T08:00:48Z</time>
      </trkpt>
      <trkpt lat="43.61809" lon="3.77761">
        <ele>96.2</ele>
        <time>2022-03-19T08:00:58Z</time>
      </trkpt>
      <trkpt lat="43.61818" lon="3.77723">
        <ele>96.6</ele>
        <time>2022-03-19T08:01:08Z</time>
      </trkpt>
      <trkpt lat="43.61828" lon="3.77687">
        <ele>97.7</ele>
        <time>2022-03-19T08:01:18Z</time>
      </trkpt>
      <trkpt lat="43.61837" lon="3.77655">
        <ele>97.7</ele>
        <time>2022-03-19T08:01:28Z</time>
      </trkpt>
      <trkpt lat="43.61848" lon="3.77623">
        <ele>97.8</ele>
        <time>2022-03-19T08:01:38Z</time>
      </trkpt>
      <trkpt lat="43.61858" lon="3.77583">
        <ele>99.2</ele>
        <time>2022-03-19T08:01:48Z</time>
      </trkpt>
      <trkpt lat="43.6187" lon="3.77548">
        <ele>100</ele>
        <time>2022-03-19T08:01:58Z</time>
      </trkpt>
      <trkpt lat="43.61881" lon="3.77511">
        <ele>100.2</ele>
        <time>2022-03-19T08:02:08Z</time>
      </trkpt>
      <trkpt lat="43.61891" lon="3.77473">
        <ele>101.7</ele>
        <time>2022-03-19T08:02:18Z</time>
      </trkpt>
      <trkpt lat="43.61902" lon="3.77441">
        <ele>101.8</ele>
        <time>2022-03-19T08:02:28Z</time>
      </trkpt>
      <trkpt lat="43.61912" lon="3.77411">
        <ele>102.9</ele>
        <time>2022-03-19T08:02:38Z</time>
      </trkpt>
      <trkpt lat="43.61927" lon="3.77377">
        <ele>104.4</ele>
        <time>2022-03-19T08:02:48Z</time>
      </trkpt>
      <trkpt lat="43.61941" lon="3.77343">
        <ele>104.6</ele>
        <time>2022-03-19T08:02:58Z</time>
      </trkpt>
      <trkpt lat="43.61956" lon="3.77306">
        <ele>106.7</ele>
        <time>2022-03-19T08:03:08Z</time>
      </trkpt>
      <trkpt lat="43.61972" lon="3.77266">
        <ele>106.5</ele>
        <time>2022-03-19T08:03:18Z</time>
      </trkpt>
      <trkpt lat="43.61988" lon="3.77228">
        <ele>105.9</ele>
        <time>2022-03-19T08:03:28Z</time>
      </trkpt>
      <trkpt lat="43.62003" lon="3.77189">
        <ele>105.2</ele>
        <time>2022-03-19T08:03:38Z</time>
      </trkpt>
      <trkpt lat="43.62019" lon="3.7715">
        <ele>104.3</ele>
        <time>2022-03-19T08:03:48Z</time>
      </trkpt>
      <trkpt lat="43.62035" lon="3.7711">
        <ele>103.3</ele>
        <time>2022-03-19T08:03:58Z</time>
      </trkpt>
      <trkpt lat="43.62051" lon="3.77071">
        <ele>106.6</ele>
        <time>2022-03-19T08:04:08Z</time>
      </trkpt>
      <trkpt lat="43.62067" lon="3.77033">
        <ele>110.2</ele>
        <time>2022-03-19T08:04:18Z</time>
      </trkpt>
      <trkpt lat="43.62083" lon="3.76996">
        <ele>111.5</ele>
        <time>2022-03-19T08:04:28Z</time>
      </trkpt>
      <trkpt lat="43.62098" lon="3.76959">
        <ele>113.9</ele>
        <time>2022-03-19T08:04:38Z</time>
      </trkpt>
      <trkpt lat="43.62113" lon="3.76924">
        <ele>113.2</ele>
        <time>2022-03-19T08:04:48Z</time>
      </trkpt>
      <trkpt lat="43.62127" lon="3.76887">
        <ele>114</ele>
        <time>2022-03-19T08:04:58Z</time>
      </trkpt>
      <trkpt lat="43.62139" lon="3.76846">
        <ele>114.5</ele>
        <time>2022-03-19T08:05:08Z</time>
      </trkpt>
      <trkpt lat="43.62151" lon="3.76818">
        <ele>115.2</ele>
        <time>2022-03-19T08:05:18Z</time>
      </trkpt>
      <trkpt lat="43.62162" lon="3.76774">
        <ele>114.8</ele>
        <time>2022-03-19T08:05:28Z</time>
      </trkpt>
      <trkpt lat="43.62175" lon="3.76731">
        <ele>115.3</ele>
        <time>2022-03-19T08:05:38Z</time>
      </trkpt>
      <trkpt lat="43.62183" lon="3.76693">
        <ele>116.8</ele>
        <time>2022-03-19T08:05:48Z</time>
      </trkpt>
      <trkpt lat="43.62196" lon="3.76652">
        <ele>117.3</ele>
        <time>2022-03-19T08:05:58Z</time>
      </trkpt>
      <trkpt lat="43.62207" lon="3.76609">
        <ele>117.9</ele>
        <time>2022-03-19T08:06:08Z</time>
      </trkpt>
      <trkpt lat="43.62221" lon="3.76562">
        <ele>118.8</ele>
        <time>2022-03-19T08:06:18Z</time>
      </trkpt>
      <trkpt lat="43.62233" lon="3.76515">
        <ele>118.7</ele>
        <time>2022-03-19T08:06:28Z</time>
      </trkpt>
      <trkpt lat="43.62245" lon="3.76464">
        <ele>118.9</ele>
        <time>2022-03-19T08:06:38Z</time>
      </trkpt>
      <trkpt lat="43.62255" lon="3.76414">
        <ele>120.2</ele>
        <time>2022-03-19T08:06:48Z</time>
      </trkpt>
      <trkpt lat="43.62262" lon="3.76369">
        <ele>120.6</ele>
        <time>2022-03-19T08:06:58Z</time>
      </trkpt>
      <trkpt lat="43.62264" lon="3.76323">
        <ele>121.4</ele>
        <time>2022-03-19T08:07:08Z</time>
      </trkpt>
      <trkpt lat="43.62272" lon="3.76278">
        <ele>122.6</ele>
        <time>2022-03-19T08:07:18Z</time>
      </trkpt>
      <trkpt lat="43.62277" lon="3.76233">
        <ele>123.6</ele>
        <time>2022-03-19T08:07:28Z</time>
      </trkpt>
      <trkpt lat="43.62283" lon="3.76201">
        <ele>124.7</ele>
        <time>2022-03-19T08:07:38Z</time>
      </trkpt>
      <trkpt lat="43.62292" lon="3.76173">
        <ele>126.4</ele>
        <time>2022-03-19T08:07:48Z</time>
      </trkpt>
      <trkpt lat="43.62297" lon="3.76155">
        <ele>127.5</ele>
        <time>2022-03-19T08:07:58Z</time>
      </trkpt>
      <trkpt lat="43.62304" lon="3.76134">
        <ele>128.9</ele>
        <time>2022-03-19T08:08:08Z</time>
      </trkpt>
      <trkpt lat="43.62309" lon="3.76111">
        <ele>130.6</ele>
        <time>2022-03-19T08:08:18Z</time>
      </trkpt>
      <trkpt lat="43.62314" lon="3.76091">
        <ele>131.7</ele>
        <time>2022-03-19T08:08:28Z</time>
      </trkpt>
      <trkpt lat="43.62321" lon="3.76072">
        <ele>133.3</ele>
        <time>2022-03-19T08:08:38Z</time>
      </trkpt>
      <trkpt lat="43.62328" lon="3.76051">
        <ele>134.8</ele>
        <time>2022-03-19T08:08:48Z</time>
      </trkpt>
      <trkpt lat="43.6233" lon="3.76029">
        <ele>135.3</ele>
        <time>2022-03-19T08:08:58Z</time>
      </trkpt>
      <trkpt lat="43.62334" lon="3.76005">
        <ele>136.9</ele>
        <time>2022-03-19T08:09:08Z</time>
      </trkpt>
      <trkpt lat="43.62339" lon="3.75983">
        <ele>138.5</ele>
        <time>2022-03-19T08:09:18Z</time>
      </trkpt>
      <trkpt lat="43.62346" lon="3.75964">
        <ele>140.3</ele>
        <time>2022-03-19T08:09:28Z</time>
      </trkpt>
      <trkpt lat="43.62354" lon="3.7595">
        <ele>142</ele>
        <time>2022-03-19T08:09:38Z</time>
      </trkpt>
      <trkpt lat="43.62363" lon="3.75936">
        <ele>143.2</ele>
        <time>2022-03-19T08:09:48Z</time>
      </trkpt>
      <trkpt lat="43.6237" lon="3.75915">
        <ele>144.1</ele>
        <time>2022-03-19T08:09:58Z</time>
      </trkpt>
      <trkpt lat="43.6237" lon="3.7589">
        <ele>145.6</ele>
        <time>2022-03-19T08:10:08Z</time>
      </trkpt>
      <trkpt lat="43.62368" lon="3.75865">
        <ele>146.4</ele>
        <time>2022-03-19T08:10:18Z</time>
      </trkpt>
      <trkpt lat="43.62376" lon="3.75845">
        <ele>148</ele>
        <time>2022-03-19T08:10:28Z</time>
      </trkpt>
      <trkpt lat="43.62381" lon="3.75824">
        <ele>149.5</ele>
        <time>2022-03-19T08:10:38Z</time>
      </trkpt>
      <trkpt lat="43.62383" lon="3.75802">
        <ele>150.6</ele>
        <time>2022-03-19T08:10:48Z</time>
      </trkpt>
      <trkpt lat="43.62382" lon="3.7578">
        <ele>152.1</ele>
        <time>2022-03-19T08:10:58Z</time>
      </trkpt>
      <trkpt lat="43.62379" lon="3.75755">
        <ele>152.8</ele>
        <time>2022-03-19T08:11:08Z</time>
      </trkpt>
      <trkpt lat="43.6238" lon="3.75731">
        <ele>153.7</ele>
        <time>2022-03-19T08:11:18Z</time>
      </trkpt>
      <trkpt lat="43.6238" lon="3.75706">
        <ele>154.6</ele>
        <time>2022-03-19T08:11:28Z</time>
      </trkpt>
      <trkpt lat="43.62385" lon="3.75683">
        <ele>155.9</ele>
        <time>2022-03-19T08:11:38Z</time>
      </trkpt>
      <trkpt lat="43.62391" lon="3.75662">
        <ele>157.4</ele>
        <time>2022-03-19T08:11:48Z</time>
      </trkpt>
      <trkpt lat="43.62397" lon="3.75642">
        <ele>158.8</ele>
        <time>2022-03-19T08:11:58Z</time>
      </trkpt>
      <trkpt lat="43.62404" lon="3.7562">
        <ele>160.3</ele>
        <time>2022-03-19T08:12:08Z</time>
      </trkpt>
      <trkpt lat="43.62412" lon="3.75602">
        <ele>162.2</ele>
        <time>2022-03-19T08:12:18Z</time>
      </trkpt>
      <trkpt lat="43.62422" lon="3.75588">
        <ele>163.9</ele>
        <time>2022-03-19T08:12:28Z</time>
      </trkpt>
      <trkpt lat="43.62434" lon="3.75575">
        <ele>164.9</ele>
        <time>2022-03-19T08:12:38Z</time>
      </trkpt>
      <trkpt lat="43.62445" lon="3.75562">
        <ele>165.8</ele>
        <time>2022-03-19T08:12:48Z</time>
      </trkpt>
      <trkpt lat="43.62458" lon="3.75557">
        <ele>166.4</ele>
        <time>2022-03-19T08:12:58Z</time>
      </trkpt>
      <trkpt lat="43.62483" lon="3.75575">
        <ele>165.2</ele>
        <time>2022-03-19T08:13:08Z</time>
      </trkpt>
      <trkpt lat="43.6251" lon="3.75568">
        <ele>164.2</ele>
        <time>2022-03-19T08:13:18Z</time>
      </trkpt>
      <trkpt lat="43.62517" lon="3.75534">
        <ele>165.7</ele>
        <time>2022-03-19T08:13:28Z</time>
      </trkpt>
      <trkpt lat="43.62524" lon="3.75501">
        <ele>166.4</ele>
        <time>2022-03-19T08:13:38Z</time>
      </trkpt>
      <trkpt lat="43.6254" lon="3.75473">
        <ele>167.6</ele>
        <time>2022-03-19T08:13:48Z</time>
      </trkpt>
      <trkpt lat="43.62572" lon="3.75452">
        <ele>165.2</ele>
        <time>2022-03-19T08:13:58Z</time>
      </trkpt>
      <trkpt lat="43.62614" lon="3.75416">
        <ele>161.7</ele>
        <time>2022-03-19T08:14:08Z</time>
      </trkpt>
      <trkpt lat="43.62659" lon="3.75371">
        <ele>161.3</ele>
        <time>2022-03-19T08:14:18Z</time>
      </trkpt>
      <trkpt lat="43.62689" lon="3.75346">
        <ele>164.9</ele>
        <time>2022-03-19T08:14:28Z</time>
      </trkpt>
      <trkpt lat="43.62708" lon="3.75331">
        <ele>166.7</ele>
        <time>2022-03-19T08:14:38Z</time>
      </trkpt>
      <trkpt lat="43.62724" lon="3.75313">
        <ele>167.7</ele>
        <time>2022-03-19T08:14:48Z</time>
      </trkpt>
      <trkpt lat="43.62742" lon="3.7529">
        <ele>168</ele>
        <time>2022-03-19T08:14:58Z</time>
      </trkpt>
      <trkpt lat="43.62759" lon="3.75263">
        <ele>166.7</ele>
        <time>2022-03-19T08:15:08Z</time>
      </trkpt>
      <trkpt lat="43.6281" lon="3.7524">
        <ele>159.1</ele>
        <time>2022-03-19T08:15:18Z</time>
      </trkpt>
      <trkpt lat="43.62838" lon="3.75211">
        <ele>155.1</ele>
        <time>2022-03-19T08:15:28Z</time>
      </trkpt>
      <trkpt lat="43.62863" lon="3.75161">
        <ele>150.5</ele>
        <time>2022-03-19T08:15:38Z</time>
      </trkpt>
      <trkpt lat="43.62923" lon="3.75153">
        <ele>145.5</ele>
        <time>2022-03-19T08:15:48Z</time>
      </trkpt>
      <trkpt lat="43.6294" lon="3.75115">
        <ele>147.7</ele>
        <time>2022-03-19T08:15:58Z</time>
      </trkpt>
      <trkpt lat="43.62946" lon="3.75082">
        <ele>149.1</ele>
        <time>2022-03-19T08:16:08Z</time>
      </trkpt>
      <trkpt lat="43.6295" lon="3.7505">
        <ele>151.7</ele>
        <time>2022-03-19T08:16:18Z</time>
      </trkpt>
      <trkpt lat="43.62957" lon="3.75019">
        <ele>152.2</ele>
        <time>2022-03-19T08:16:28Z</time>
      </trkpt>
      <trkpt lat="43.62977" lon="3.75">
        <ele>152</ele>
        <time>2022-03-19T08:16:38Z</time>
      </trkpt>
      <trkpt lat="43.63008" lon="3.7499">
        <ele>152.2</ele>
        <time>2022-03-19T08:16:48Z</time>
      </trkpt>
      <trkpt lat="43.63034" lon="3.74966">
        <ele>152.4</ele>
        <time>2022-03-19T08:16:58Z</time>
      </trkpt>
      <trkpt lat="43.63055" lon="3.74934">
        <ele>152.6</ele>
        <time>2022-03-19T08:17:08Z</time>
      </trkpt>
      <trkpt lat="43.63071" lon="3.74895">
        <ele>152.3</ele>
        <time>2022-03-19T08:17:18Z</time>
      </trkpt>
      <trkpt lat="43.63094" lon="3.74864">
        <ele>152.9</ele>
        <time>2022-03-19T08:17:28Z</time>
      </trkpt>
      <trkpt lat="43.63117" lon="3.74833">
        <ele>153.4</ele>
        <time>2022-03-19T08:17:38Z</time>
      </trkpt>
      <trkpt lat="43.63132" lon="3.74797">
        <ele>153.2</ele>
        <time>2022-03-19T08:17:48Z</time>
      </trkpt>
      <trkpt lat="43.63157" lon="3.74778">
        <ele>154.3</ele>
        <time>2022-03-19T08:17:58Z</time>
      </trkpt>
      <trkpt lat="43.63182" lon="3.7476">
        <ele>154.1</ele>
        <time>2022-03-19T08:18:08Z</time>
      </trkpt>
      <trkpt lat="43.63208" lon="3.74742">
        <ele>154.3</ele>
        <time>2022-03-19T08:18:18Z</time>
      </trkpt>
      <trkpt lat="43.63211" lon="3.74702">
        <ele>153.7</ele>
        <time>2022-03-19T08:18:28Z</time>
      </trkpt>
      <trkpt lat="43.63211" lon="3.74668">
        <ele>153.2</ele>
        <time>2022-03-19T08:18:38Z</time>
      </trkpt>
      <trkpt lat="43.63231" lon="3.74684">
        <ele>154.5</ele>
        <time>2022-03-19T08:18:48Z</time>
      </trkpt>
      <trkpt lat="43.63255" lon="3.74698">
        <ele>155.2</ele>
        <time>2022-03-19T08:18:58Z</time>
      </trkpt>
      <trkpt lat="43.63279" lon="3.74714">
        <ele>152.8</ele>
        <time>2022-03-19T08:19:08Z</time>
      </trkpt>
      <trkpt lat="43.63306" lon="3.74731">
        <ele>153.1</ele>
        <time>2022-03-19T08:19:18Z</time>
      </trkpt>
      <trkpt lat="43.63336" lon="3.74751">
        <ele>157.9</ele>
        <time>2022-03-19T08:19:28Z</time>
      </trkpt>
      <trkpt lat="43.63368" lon="3.74771">
        <ele>157.6</ele>
        <time>2022-03-19T08:19:38Z</time>
      </trkpt>
      <trkpt lat="43.63399" lon="3.74792">
        <ele>157.5</ele>
        <time>2022-03-19T08:19:48Z</time>
      </trkpt>
      <trkpt lat="43.63432" lon="3.74813">
        <ele>158.2</ele>
        <time>2022-03-19T08:19:58Z</time>
      </trkpt>
      <trkpt lat="43.63462" lon="3.74833">
        <ele>158.7</ele>
        <time>2022-03-19T08:20:08Z</time>
      </trkpt>
      <trkpt lat="43.63495" lon="3.74853">
        <ele>159.8</ele>
        <time>2022-03-19T08:20:18Z</time>
      </trkpt>
      <trkpt lat="43.63524" lon="3.74872">
        <ele>161.3</ele>
        <time>2022-03-19T08:20:28Z</time>
      </trkpt>
      <trkpt lat="43.63553" lon="3.74889">
        <ele>162.8</ele>
        <time>2022-03-19T08:20:38Z</time>
      </trkpt>
      <trkpt lat="43.63586" lon="3.74914">
        <ele>163.2</ele>
        <time>2022-03-19T08:21:48Z</time>
      </trkpt>
      <trkpt lat="43.63621" lon="3.74927">
        <ele>163.5</ele>
        <time>2022-03-19T08:22:08Z</time>
      </trkpt>
      <trkpt lat="43.63663" lon="3.7493">
        <ele>163</ele>
        <time>2022-03-19T08:22:18Z</time>
      </trkpt>
      <trkpt lat="43.63704" lon="3.74936">
        <ele>162.6</ele>
        <time>2022-03-19T08:22:28Z</time>
      </trkpt>
      <trkpt lat="43.63757" lon="3.74936">
        <ele>160.1</ele>
        <time>2022-03-19T08:22:38Z</time>
      </trkpt>
      <trkpt lat="43.63808" lon="3.74942">
        <ele>159.3</ele>
        <time>2022-03-19T08:22:48Z</time>
      </trkpt>
      <trkpt lat="43.63847" lon="3.74948">
        <ele>159.9</ele>
        <time>2022-03-19T08:22:58Z</time>
      </trkpt>
      <trkpt lat="43.63877" lon="3.74952">
        <ele>159.2</ele>
        <time>2022-03-19T08:28:18Z</time>
      </trkpt>
      <trkpt lat="43.63894" lon="3.74955">
        <ele>158.3</ele>
        <time>2022-03-19T08:28:38Z</time>
      </trkpt>
      <trkpt lat="43.63918" lon="3.7493">
        <ele>157</ele>
        <time>2022-03-19T08:28:48Z</time>
      </trkpt>
      <trkpt lat="43.63944" lon="3.74877">
        <ele>156</ele>
        <time>2022-03-19T08:28:58Z</time>
      </trkpt>
      <trkpt lat="43.63962" lon="3.74817">
        <ele>153.9</ele>
        <time>2022-03-19T08:29:08Z</time>
      </trkpt>
      <trkpt lat="43.63956" lon="3.74771">
        <ele>153.5</ele>
        <time>2022-03-19T08:29:18Z</time>
      </trkpt>
      <trkpt lat="43.63951" lon="3.74742">
        <ele>153.3</ele>
        <time>2022-03-19T08:29:28Z</time>
      </trkpt>
      <trkpt lat="43.63944" lon="3.74712">
        <ele>153.7</ele>
        <time>2022-03-19T08:29:38Z</time>
      </trkpt>
      <trkpt lat="43.63942" lon="3.74672">
        <ele>153.2</ele>
        <time>2022-03-19T08:29:48Z</time>
      </trkpt>
      <trkpt lat="43.63934" lon="3.74627">
        <ele>153.1</ele>
        <time>2022-03-19T08:29:58Z</time>
      </trkpt>
      <trkpt lat="43.63926" lon="3.74582">
        <ele>154</ele>
        <time>2022-03-19T08:30:08Z</time>
      </trkpt>
      <trkpt lat="43.63915" lon="3.74539">
        <ele>153.6</ele>
        <time>2022-03-19T08:30:18Z</time>
      </trkpt>
      <trkpt lat="43.63908" lon="3.74496">
        <ele>154.4</ele>
        <time>2022-03-19T08:30:28Z</time>
      </trkpt>
      <trkpt lat="43.63905" lon="3.7445">
        <ele>154.8</ele>
        <time>2022-03-19T08:30:38Z</time>
      </trkpt>
      <trkpt lat="43.63908" lon="3.74404">
        <ele>155.3</ele>
        <time>2022-03-19T08:30:48Z</time>
      </trkpt>
      <trkpt lat="43.63902" lon="3.74363">
        <ele>156</ele>
        <time>2022-03-19T08:30:58Z</time>
      </trkpt>
      <trkpt lat="43.63896" lon="3.74323">
        <ele>154.6</ele>
        <time>2022-03-19T08:31:08Z</time>
      </trkpt>
      <trkpt lat="43.63891" lon="3.74267">
        <ele>153.5</ele>
        <time>2022-03-19T08:31:18Z</time>
      </trkpt>
      <trkpt lat="43.63887" lon="3.74208">
        <ele>150.5</ele>
        <time>2022-03-19T08:31:28Z</time>
      </trkpt>
      <trkpt lat="43.63882" lon="3.74163">
        <ele>149.8</ele>
        <time>2022-03-19T08:31:38Z</time>
      </trkpt>
      <trkpt lat="43.63881" lon="3.74122">
        <ele>149.7</ele>
        <time>2022-03-19T08:31:48Z</time>
      </trkpt>
      <trkpt lat="43.63877" lon="3.7408">
        <ele>148.6</ele>
        <time>2022-03-19T08:31:58Z</time>
      </trkpt>
      <trkpt lat="43.63873" lon="3.74037">
        <ele>147.5</ele>
        <time>2022-03-19T08:32:08Z</time>
      </trkpt>
      <trkpt lat="43.63875" lon="3.73993">
        <ele>147.5</ele>
        <time>2022-03-19T08:32:18Z</time>
      </trkpt>
      <trkpt lat="43.6387" lon="3.73948">
        <ele>146.6</ele>
        <time>2022-03-19T08:32:28Z</time>
      </trkpt>
      <trkpt lat="43.63868" lon="3.73903">
        <ele>145.9</ele>
        <time>2022-03-19T08:32:38Z</time>
      </trkpt>
      <trkpt lat="43.63867" lon="3.73859">
        <ele>145</ele>
        <time>2022-03-19T08:32:48Z</time>
      </trkpt>
      <trkpt lat="43.63868" lon="3.73819">
        <ele>143.9</ele>
        <time>2022-03-19T08:32:58Z</time>
      </trkpt>
      <trkpt lat="43.6387" lon="3.73791">
        <ele>143.6</ele>
        <time>2022-03-19T08:33:08Z</time>
      </trkpt>
      <trkpt lat="43.6386" lon="3.73769">
        <ele>142.7</ele>
        <time>2022-03-19T08:33:18Z</time>
      </trkpt>
      <trkpt lat="43.63849" lon="3.73747">
        <ele>142.4</ele>
        <time>2022-03-19T08:33:38Z</time>
      </trkpt>
      <trkpt lat="43.63837" lon="3.73724">
        <ele>142.9</ele>
        <time>2022-03-19T08:33:48Z</time>
      </trkpt>
      <trkpt lat="43.63835" lon="3.73694">
        <ele>142</ele>
        <time>2022-03-19T08:33:58Z</time>
      </trkpt>
      <trkpt lat="43.63835" lon="3.73662">
        <ele>141.2</ele>
        <time>2022-03-19T08:34:08Z</time>
      </trkpt>
      <trkpt lat="43.63837" lon="3.73628">
        <ele>141.8</ele>
        <time>2022-03-19T08:34:18Z</time>
      </trkpt>
      <trkpt lat="43.63837" lon="3.73594">
        <ele>141.7</ele>
        <time>2022-03-19T08:34:28Z</time>
      </trkpt>
      <trkpt lat="43.63839" lon="3.73552">
        <ele>141.6</ele>
        <time>2022-03-19T08:34:38Z</time>
      </trkpt>
      <trkpt lat="43.6384" lon="3.73503">
        <ele>140.6</ele>
        <time>2022-03-19T08:34:48Z</time>
      </trkpt>
      <trkpt lat="43.6384" lon="3.73449">
        <ele>139.8</ele>
        <time>2022-03-19T08:34:58Z</time>
      </trkpt>
      <trkpt lat="43.63844" lon="3.73392">
        <ele>140.2</ele>
        <time>2022-03-19T08:35:08Z</time>
      </trkpt>
      <trkpt lat="43.63847" lon="3.73334">
        <ele>139</ele>
        <time>2022-03-19T08:35:18Z</time>
      </trkpt>
      <trkpt lat="43.63845" lon="3.7327">
        <ele>137.5</ele>
        <time>2022-03-19T08:35:28Z</time>
      </trkpt>
      <trkpt lat="43.63842" lon="3.73207">
        <ele>136.5</ele>
        <time>2022-03-19T08:35:38Z</time>
      </trkpt>
      <trkpt lat="43.63844" lon="3.73142">
        <ele>135.6</ele>
        <time>2022-03-19T08:35:48Z</time>
      </trkpt>
      <trkpt lat="43.6385" lon="3.73083">
        <ele>134.8</ele>
        <time>2022-03-19T08:35:58Z</time>
      </trkpt>
      <trkpt lat="43.63857" lon="3.73029">
        <ele>134.1</ele>
        <time>2022-03-19T08:36:08Z</time>
      </trkpt>
      <trkpt lat="43.63863" lon="3.72978">
        <ele>133.9</ele>
        <time>2022-03-19T08:36:18Z</time>
      </trkpt>
      <trkpt lat="43.6387" lon="3.72927">
        <ele>133.5</ele>
        <time>2022-03-19T08:36:28Z</time>
      </trkpt>
      <trkpt lat="43.63876" lon="3.72881">
        <ele>133.1</ele>
        <time>2022-03-19T08:36:38Z</time>
      </trkpt>
      <trkpt lat="43.63881" lon="3.72856">
        <ele>133.3</ele>
        <time>2022-03-19T08:36:48Z</time>
      </trkpt>
      <trkpt lat="43.63889" lon="3.72812">
        <ele>133.8</ele>
        <time>2022-03-19T08:36:58Z</time>
      </trkpt>
      <trkpt lat="43.639" lon="3.72767">
        <ele>133.2</ele>
        <time>2022-03-19T08:37:08Z</time>
      </trkpt>
      <trkpt lat="43.63911" lon="3.72717">
        <ele>132.4</ele>
        <time>2022-03-19T08:37:18Z</time>
      </trkpt>
      <trkpt lat="43.63924" lon="3.72668">
        <ele>132.4</ele>
        <time>2022-03-19T08:37:28Z</time>
      </trkpt>
      <trkpt lat="43.63937" lon="3.72624">
        <ele>132.1</ele>
        <time>2022-03-19T08:37:38Z</time>
      </trkpt>
      <trkpt lat="43.63952" lon="3.72577">
        <ele>131.6</ele>
        <time>2022-03-19T08:37:48Z</time>
      </trkpt>
      <trkpt lat="43.63967" lon="3.72529">
        <ele>131.3</ele>
        <time>2022-03-19T08:37:58Z</time>
      </trkpt>
      <trkpt lat="43.63989" lon="3.72481">
        <ele>130.9</ele>
        <time>2022-03-19T08:38:08Z</time>
      </trkpt>
      <trkpt lat="43.64014" lon="3.72433">
        <ele>130.4</ele>
        <time>2022-03-19T08:38:18Z</time>
      </trkpt>
      <trkpt lat="43.6404" lon="3.72393">
        <ele>129.5</ele>
        <time>2022-03-19T08:38:28Z</time>
      </trkpt>
      <trkpt lat="43.64064" lon="3.7236">
        <ele>129.4</ele>
        <time>2022-03-19T08:38:38Z</time>
      </trkpt>
      <trkpt lat="43.64087" lon="3.72319">
        <ele>129.3</ele>
        <time>2022-03-19T08:38:48Z</time>
      </trkpt>
      <trkpt lat="43.64111" lon="3.72276">
        <ele>129</ele>
        <time>2022-03-19T08:38:58Z</time>
      </trkpt>
      <trkpt lat="43.64132" lon="3.72228">
        <ele>127.7</ele>
        <time>2022-03-19T08:39:08Z</time>
      </trkpt>
      <trkpt lat="43.64151" lon="3.7218">
        <ele>127.6</ele>
        <time>2022-03-19T08:39:18Z</time>
      </trkpt>
      <trkpt lat="43.6417" lon="3.72132">
        <ele>127.9</ele>
        <time>2022-03-19T08:39:28Z</time>
      </trkpt>
      <trkpt lat="43.64188" lon="3.72082">
        <ele>127.3</ele>
        <time>2022-03-19T08:39:38Z</time>
      </trkpt>
      <trkpt lat="43.64208" lon="3.72033">
        <ele>128</ele>
        <time>2022-03-19T08:39:48Z</time>
      </trkpt>
      <trkpt lat="43.64217" lon="3.7198">
        <ele>128.1</ele>
        <time>2022-03-19T08:39:58Z</time>
      </trkpt>
      <trkpt lat="43.64225" lon="3.71929">
        <ele>129.6</ele>
        <time>2022-03-19T08:40:08Z</time>
      </trkpt>
      <trkpt lat="43.64221" lon="3.71888">
        <ele>130.1</ele>
        <time>2022-03-19T08:40:18Z</time>
      </trkpt>
      <trkpt lat="43.64235" lon="3.71849">
        <ele>132.7</ele>
        <time>2022-03-19T08:40:28Z</time>
      </trkpt>
      <trkpt lat="43.64245" lon="3.71811">
        <ele>134.1</ele>
        <time>2022-03-19T08:40:38Z</time>
      </trkpt>
      <trkpt lat="43.64251" lon="3.71767">
        <ele>134.3</ele>
        <time>2022-03-19T08:40:48Z</time>
      </trkpt>
      <trkpt lat="43.64241" lon="3.71745">
        <ele>136.1</ele>
        <time>2022-03-19T08:40:58Z</time>
      </trkpt>
      <trkpt lat="43.64224" lon="3.71758">
        <ele>137.5</ele>
        <time>2022-03-19T08:41:08Z</time>
      </trkpt>
      <trkpt lat="43.64212" lon="3.71746">
        <ele>138.7</ele>
        <time>2022-03-19T08:41:18Z</time>
      </trkpt>
      <trkpt lat="43.64205" lon="3.71727">
        <ele>140.3</ele>
        <time>2022-03-19T08:41:28Z</time>
      </trkpt>
      <trkpt lat="43.64198" lon="3.71708">
        <ele>141.7</ele>
        <time>2022-03-19T08:41:38Z</time>
      </trkpt>
      <trkpt lat="43.64193" lon="3.71686">
        <ele>143.1</ele>
        <time>2022-03-19T08:41:48Z</time>
      </trkpt>
      <trkpt lat="43.64183" lon="3.71666">
        <ele>144.2</ele>
        <time>2022-03-19T08:41:58Z</time>
      </trkpt>
      <trkpt lat="43.64168" lon="3.71652">
        <ele>145.9</ele>
        <time>2022-03-19T08:42:08Z</time>
      </trkpt>
      <trkpt lat="43.64155" lon="3.71638">
        <ele>147.2</ele>
        <time>2022-03-19T08:42:18Z</time>
      </trkpt>
      <trkpt lat="43.64142" lon="3.71627">
        <ele>148.6</ele>
        <time>2022-03-19T08:42:28Z</time>
      </trkpt>
      <trkpt lat="43.64128" lon="3.71614">
        <ele>149.7</ele>
        <time>2022-03-19T08:42:38Z</time>
      </trkpt>
      <trkpt lat="43.64111" lon="3.71605">
        <ele>151</ele>
        <time>2022-03-19T08:42:48Z</time>
      </trkpt>
      <trkpt lat="43.64095" lon="3.71595">
        <ele>151.1</ele>
        <time>2022-03-19T08:42:58Z</time>
      </trkpt>
      <trkpt lat="43.64082" lon="3.71577">
        <ele>152.4</ele>
        <time>2022-03-19T08:43:08Z</time>
      </trkpt>
      <trkpt lat="43.64069" lon="3.71552">
        <ele>152.9</ele>
        <time>2022-03-19T08:43:18Z</time>
      </trkpt>
      <trkpt lat="43.64065" lon="3.71508">
        <ele>150.8</ele>
        <time>2022-03-19T08:43:28Z</time>
      </trkpt>
      <trkpt lat="43.64064" lon="3.71456">
        <ele>147.6</ele>
        <time>2022-03-19T08:43:38Z</time>
      </trkpt>
      <trkpt lat="43.64064" lon="3.71389">
        <ele>143.9</ele>
        <time>2022-03-19T08:43:48Z</time>
      </trkpt>
      <trkpt lat="43.64072" lon="3.71363">
        <ele>142.9</ele>
        <time>2022-03-19T08:43:58Z</time>
      </trkpt>
      <trkpt lat="43.64077" lon="3.71342">
        <ele>143</ele>
        <time>2022-03-19T08:44:18Z</time>
      </trkpt>
      <trkpt lat="43.64066" lon="3.71304">
        <ele>141</ele>
        <time>2022-03-19T08:44:38Z</time>
      </trkpt>
      <trkpt lat="43.64053" lon="3.71267">
        <ele>136.9</ele>
        <time>2022-03-19T08:44:48Z</time>
      </trkpt>
      <trkpt lat="43.64046" lon="3.71225">
        <ele>134.2</ele>
        <time>2022-03-19T08:44:58Z</time>
      </trkpt>
      <trkpt lat="43.64056" lon="3.71188">
        <ele>130.6</ele>
        <time>2022-03-19T08:45:08Z</time>
      </trkpt>
      <trkpt lat="43.64036" lon="3.71177">
        <ele>130</ele>
        <time>2022-03-19T08:45:18Z</time>
      </trkpt>
      <trkpt lat="43.64021" lon="3.7118">
        <ele>130.6</ele>
        <time>2022-03-19T08:45:28Z</time>
      </trkpt>
      <trkpt lat="43.64012" lon="3.71169">
        <ele>130.2</ele>
        <time>2022-03-19T08:45:48Z</time>
      </trkpt>
      <trkpt lat="43.63997" lon="3.71157">
        <ele>131.6</ele>
        <time>2022-03-19T08:45:58Z</time>
      </trkpt>
      <trkpt lat="43.63974" lon="3.71159">
        <ele>133.1</ele>
        <time>2022-03-19T08:46:08Z</time>
      </trkpt>
      <trkpt lat="43.63955" lon="3.71157">
        <ele>134.6</ele>
        <time>2022-03-19T08:46:18Z</time>
      </trkpt>
      <trkpt lat="43.63938" lon="3.71154">
        <ele>136.2</ele>
        <time>2022-03-19T08:46:28Z</time>
      </trkpt>
      <trkpt lat="43.63928" lon="3.71132">
        <ele>138</ele>
        <time>2022-03-19T08:46:38Z</time>
      </trkpt>
      <trkpt lat="43.63925" lon="3.71114">
        <ele>140</ele>
        <time>2022-03-19T08:46:48Z</time>
      </trkpt>
      <trkpt lat="43.63915" lon="3.71094">
        <ele>140.6</ele>
        <time>2022-03-19T08:46:58Z</time>
      </trkpt>
      <trkpt lat="43.63922" lon="3.71071">
        <ele>141.3</ele>
        <time>2022-03-19T08:47:08Z</time>
      </trkpt>
      <trkpt lat="43.63926" lon="3.71047">
        <ele>141.5</ele>
        <time>2022-03-19T08:47:18Z</time>
      </trkpt>
      <trkpt lat="43.63937" lon="3.71024">
        <ele>142.1</ele>
        <time>2022-03-19T08:47:28Z</time>
      </trkpt>
      <trkpt lat="43.6395" lon="3.70995">
        <ele>142.8</ele>
        <time>2022-03-19T08:47:38Z</time>
      </trkpt>
      <trkpt lat="43.63961" lon="3.70963">
        <ele>143.8</ele>
        <time>2022-03-19T08:47:48Z</time>
      </trkpt>
      <trkpt lat="43.63964" lon="3.7093">
        <ele>143.3</ele>
        <time>2022-03-19T08:47:58Z</time>
      </trkpt>
      <trkpt lat="43.63973" lon="3.70896">
        <ele>143.9</ele>
        <time>2022-03-19T08:48:08Z</time>
      </trkpt>
      <trkpt lat="43.63985" lon="3.7086">
        <ele>143.1</ele>
        <time>2022-03-19T08:48:18Z</time>
      </trkpt>
      <trkpt lat="43.63988" lon="3.70822">
        <ele>144.4</ele>
        <time>2022-03-19T08:48:28Z</time>
      </trkpt>
      <trkpt lat="43.6399" lon="3.70779">
        <ele>144.6</ele>
        <time>2022-03-19T08:48:38Z</time>
      </trkpt>
      <trkpt lat="43.63997" lon="3.70729">
        <ele>143.6</ele>
        <time>2022-03-19T08:48:48Z</time>
      </trkpt>
      <trkpt lat="43.63998" lon="3.70683">
        <ele>142.8</ele>
        <time>2022-03-19T08:48:58Z</time>
      </trkpt>
      <trkpt lat="43.63997" lon="3.70637">
        <ele>141.7</ele>
        <time>2022-03-19T08:49:08Z</time>
      </trkpt>
      <trkpt lat="43.63985" lon="3.70603">
        <ele>140.2</ele>
        <time>2022-03-19T08:49:18Z</time>
      </trkpt>
      <trkpt lat="43.63971" lon="3.7056">
        <ele>138.8</ele>
        <time>2022-03-19T08:49:28Z</time>
      </trkpt>
      <trkpt lat="43.63957" lon="3.70538">
        <ele>136.2</ele>
        <time>2022-03-19T08:49:38Z</time>
      </trkpt>
      <trkpt lat="43.63945" lon="3.70487">
        <ele>133.6</ele>
        <time>2022-03-19T08:49:48Z</time>
      </trkpt>
      <trkpt lat="43.63938" lon="3.70438">
        <ele>130.1</ele>
        <time>2022-03-19T08:49:58Z</time>
      </trkpt>
      <trkpt lat="43.63939" lon="3.70409">
        <ele>129.1</ele>
        <time>2022-03-19T08:50:08Z</time>
      </trkpt>
      <trkpt lat="43.63961" lon="3.70386">
        <ele>130.1</ele>
        <time>2022-03-19T08:50:18Z</time>
      </trkpt>
      <trkpt lat="43.63984" lon="3.70354">
        <ele>129.7</ele>
        <time>2022-03-19T08:50:28Z</time>
      </trkpt>
      <trkpt lat="43.64008" lon="3.70329">
        <ele>130.4</ele>
        <time>2022-03-19T08:50:38Z</time>
      </trkpt>
      <trkpt lat="43.64049" lon="3.70312">
        <ele>126.9</ele>
        <time>2022-03-19T08:50:48Z</time>
      </trkpt>
      <trkpt lat="43.64093" lon="3.70296">
        <ele>122</ele>
        <time>2022-03-19T08:50:58Z</time>
      </trkpt>
      <trkpt lat="43.6414" lon="3.70255">
        <ele>117.9</ele>
        <time>2022-03-19T08:51:08Z</time>
      </trkpt>
      <trkpt lat="43.64183" lon="3.70207">
        <ele>112.1</ele>
        <time>2022-03-19T08:51:18Z</time>
      </trkpt>
      <trkpt lat="43.64228" lon="3.70161">
        <ele>110</ele>
        <time>2022-03-19T08:51:28Z</time>
      </trkpt>
      <trkpt lat="43.64268" lon="3.70119">
        <ele>109.3</ele>
        <time>2022-03-19T08:51:38Z</time>
      </trkpt>
      <trkpt lat="43.64294" lon="3.70089">
        <ele>112.3</ele>
        <time>2022-03-19T08:51:48Z</time>
      </trkpt>
      <trkpt lat="43.64318" lon="3.70065">
        <ele>114.3</ele>
        <time>2022-03-19T08:51:58Z</time>
      </trkpt>
      <trkpt lat="43.64339" lon="3.70044">
        <ele>115.1</ele>
        <time>2022-03-19T08:52:08Z</time>
      </trkpt>
      <trkpt lat="43.64367" lon="3.70019">
        <ele>115.8</ele>
        <time>2022-03-19T08:52:18Z</time>
      </trkpt>
      <trkpt lat="43.64396" lon="3.70001">
        <ele>114.5</ele>
        <time>2022-03-19T08:52:28Z</time>
      </trkpt>
      <trkpt lat="43.64448" lon="3.69989">
        <ele>111.5</ele>
        <time>2022-03-19T08:52:38Z</time>
      </trkpt>
      <trkpt lat="43.64496" lon="3.69968">
        <ele>112</ele>
        <time>2022-03-19T08:52:48Z</time>
      </trkpt>
      <trkpt lat="43.64531" lon="3.69949">
        <ele>112.1</ele>
        <time>2022-03-19T08:52:58Z</time>
      </trkpt>
      <trkpt lat="43.64567" lon="3.69937">
        <ele>113.3</ele>
        <time>2022-03-19T08:53:08Z</time>
      </trkpt>
      <trkpt lat="43.64603" lon="3.69932">
        <ele>113.8</ele>
        <time>2022-03-19T08:53:18Z</time>
      </trkpt>
      <trkpt lat="43.64639" lon="3.6992">
        <ele>115</ele>
        <time>2022-03-19T08:53:28Z</time>
      </trkpt>
      <trkpt lat="43.6467" lon="3.69907">
        <ele>116.3</ele>
        <time>2022-03-19T08:53:38Z</time>
      </trkpt>
      <trkpt lat="43.64699" lon="3.69891">
        <ele>117.5</ele>
        <time>2022-03-19T08:53:48Z</time>
      </trkpt>
      <trkpt lat="43.6473" lon="3.69875">
        <ele>118.6</ele>
        <time>2022-03-19T08:53:58Z</time>
      </trkpt>
      <trkpt lat="43.64762" lon="3.69865">
        <ele>118.7</ele>
        <time>2022-03-19T08:54:08Z</time>
      </trkpt>
      <trkpt lat="43.64794" lon="3.69857">
        <ele>120.1</ele>
        <time>2022-03-19T08:54:18Z</time>
      </trkpt>
      <trkpt lat="43.64825" lon="3.69845">
        <ele>120.8</ele>
        <time>2022-03-19T08:54:28Z</time>
      </trkpt>
      <trkpt lat="43.64851" lon="3.69839">
        <ele>121.6</ele>
        <time>2022-03-19T08:54:38Z</time>
      </trkpt>
      <trkpt lat="43.64885" lon="3.69835">
        <ele>122.9</ele>
        <time>2022-03-19T08:54:48Z</time>
      </trkpt>
      <trkpt lat="43.64897" lon="3.69801">
        <ele>123.2</ele>
        <time>2022-03-19T08:54:58Z</time>
      </trkpt>
      <trkpt lat="43.6491" lon="3.69791">
        <ele>123.9</ele>
        <time>2022-03-19T08:55:08Z</time>
      </trkpt>
      <trkpt lat="43.6492" lon="3.6977">
        <ele>125.3</ele>
        <time>2022-03-19T08:55:18Z</time>
      </trkpt>
      <trkpt lat="43.64925" lon="3.69749">
        <ele>126.8</ele>
        <time>2022-03-19T08:55:28Z</time>
      </trkpt>
      <trkpt lat="43.64928" lon="3.69731">
        <ele>128.4</ele>
        <time>2022-03-19T08:55:38Z</time>
      </trkpt>
      <trkpt lat="43.64935" lon="3.69718">
        <ele>129.5</ele>
        <time>2022-03-19T08:55:48Z</time>
      </trkpt>
      <trkpt lat="43.64939" lon="3.69707">
        <ele>131.2</ele>
        <time>2022-03-19T08:55:58Z</time>
      </trkpt>
      <trkpt lat="43.64944" lon="3.69694">
        <ele>133.1</ele>
        <time>2022-03-19T08:56:08Z</time>
      </trkpt>
      <trkpt lat="43.64952" lon="3.69674">
        <ele>133.2</ele>
        <time>2022-03-19T08:56:18Z</time>
      </trkpt>
      <trkpt lat="43.64963" lon="3.69652">
        <ele>129.3</ele>
        <time>2022-03-19T08:57:08Z</time>
      </trkpt>
      <trkpt lat="43.64961" lon="3.69628">
        <ele>129.4</ele>
        <time>2022-03-19T08:57:28Z</time>
      </trkpt>
      <trkpt lat="43.64956" lon="3.69607">
        <ele>130.4</ele>
        <time>2022-03-19T08:57:38Z</time>
      </trkpt>
      <trkpt lat="43.6495" lon="3.69583">
        <ele>131.8</ele>
        <time>2022-03-19T08:57:48Z</time>
      </trkpt>
      <trkpt lat="43.64951" lon="3.69549">
        <ele>128.7</ele>
        <time>2022-03-19T08:57:58Z</time>
      </trkpt>
      <trkpt lat="43.64956" lon="3.69533">
        <ele>126.5</ele>
        <time>2022-03-19T08:58:08Z</time>
      </trkpt>
      <trkpt lat="43.64951" lon="3.69507">
        <ele>126.3</ele>
        <time>2022-03-19T08:58:38Z</time>
      </trkpt>
      <trkpt lat="43.64939" lon="3.69485">
        <ele>127.4</ele>
        <time>2022-03-19T08:58:58Z</time>
      </trkpt>
      <trkpt lat="43.64938" lon="3.69455">
        <ele>127.8</ele>
        <time>2022-03-19T08:59:08Z</time>
      </trkpt>
      <trkpt lat="43.64954" lon="3.6943">
        <ele>128.5</ele>
        <time>2022-03-19T08:59:18Z</time>
      </trkpt>
      <trkpt lat="43.64969" lon="3.69402">
        <ele>129.5</ele>
        <time>2022-03-19T08:59:28Z</time>
      </trkpt>
      <trkpt lat="43.64956" lon="3.69375">
        <ele>129.7</ele>
        <time>2022-03-19T08:59:38Z</time>
      </trkpt>
      <trkpt lat="43.64949" lon="3.69349">
        <ele>130.9</ele>
        <time>2022-03-19T08:59:48Z</time>
      </trkpt>
      <trkpt lat="43.64959" lon="3.69323">
        <ele>132.4</ele>
        <time>2022-03-19T08:59:58Z</time>
      </trkpt>
      <trkpt lat="43.6497" lon="3.6929">
        <ele>133</ele>
        <time>2022-03-19T09:00:08Z</time>
      </trkpt>
      <trkpt lat="43.6498" lon="3.69265">
        <ele>133.5</ele>
        <time>2022-03-19T09:00:18Z</time>
      </trkpt>
      <trkpt lat="43.65004" lon="3.6926">
        <ele>133.8</ele>
        <time>2022-03-19T09:00:48Z</time>
      </trkpt>
      <trkpt lat="43.65027" lon="3.69278">
        <ele>134</ele>
        <time>2022-03-19T09:01:08Z</time>
      </trkpt>
      <trkpt lat="43.65047" lon="3.69271">
        <ele>134.2</ele>
        <time>2022-03-19T09:01:18Z</time>
      </trkpt>
      <trkpt lat="43.65068" lon="3.69251">
        <ele>135.4</ele>
        <time>2022-03-19T09:01:28Z</time>
      </trkpt>
      <trkpt lat="43.65068" lon="3.69214">
        <ele>136.1</ele>
        <time>2022-03-19T09:01:38Z</time>
      </trkpt>
      <trkpt lat="43.65061" lon="3.69179">
        <ele>136.8</ele>
        <time>2022-03-19T09:01:48Z</time>
      </trkpt>
      <trkpt lat="43.65057" lon="3.69142">
        <ele>137.9</ele>
        <time>2022-03-19T09:01:58Z</time>
      </trkpt>
      <trkpt lat="43.65059" lon="3.69106">
        <ele>139.2</ele>
        <time>2022-03-19T09:02:08Z</time>
      </trkpt>
      <trkpt lat="43.65055" lon="3.69071">
        <ele>140.5</ele>
        <time>2022-03-19T09:02:18Z</time>
      </trkpt>
      <trkpt lat="43.65046" lon="3.6904">
        <ele>142.2</ele>
        <time>2022-03-19T09:02:28Z</time>
      </trkpt>
      <trkpt lat="43.65036" lon="3.69009">
        <ele>143.6</ele>
        <time>2022-03-19T09:02:38Z</time>
      </trkpt>
      <trkpt lat="43.6503" lon="3.68979">
        <ele>144</ele>
        <time>2022-03-19T09:02:48Z</time>
      </trkpt>
      <trkpt lat="43.65034" lon="3.68942">
        <ele>144.3</ele>
        <time>2022-03-19T09:02:58Z</time>
      </trkpt>
      <trkpt lat="43.65039" lon="3.68909">
        <ele>145.8</ele>
        <time>2022-03-19T09:03:08Z</time>
      </trkpt>
      <trkpt lat="43.65046" lon="3.68871">
        <ele>147</ele>
        <time>2022-03-19T09:03:18Z</time>
      </trkpt>
      <trkpt lat="43.65049" lon="3.68832">
        <ele>147.8</ele>
        <time>2022-03-19T09:03:28Z</time>
      </trkpt>
      <trkpt lat="43.65051" lon="3.68796">
        <ele>147.9</ele>
        <time>2022-03-19T09:03:38Z</time>
      </trkpt>
      <trkpt lat="43.65054" lon="3.68761">
        <ele>148.6</ele>
        <time>2022-03-19T09:03:48Z</time>
      </trkpt>
      <trkpt lat="43.65059" lon="3.68736">
        <ele>150.3</ele>
        <time>2022-03-19T09:03:58Z</time>
      </trkpt>
      <trkpt lat="43.65065" lon="3.68714">
        <ele>152</ele>
        <time>2022-03-19T09:04:08Z</time>
      </trkpt>
      <trkpt lat="43.65073" lon="3.68692">
        <ele>153.3</ele>
        <time>2022-03-19T09:04:18Z</time>
      </trkpt>
      <trkpt lat="43.65081" lon="3.68672">
        <ele>154.6</ele>
        <time>2022-03-19T09:04:28Z</time>
      </trkpt>
      <trkpt lat="43.65088" lon="3.68649">
        <ele>155.8</ele>
        <time>2022-03-19T09:04:38Z</time>
      </trkpt>
      <trkpt lat="43.65095" lon="3.68624">
        <ele>157</ele>
        <time>2022-03-19T09:04:48Z</time>
      </trkpt>
      <trkpt lat="43.65101" lon="3.68601">
        <ele>158.4</ele>
        <time>2022-03-19T09:04:58Z</time>
      </trkpt>
      <trkpt lat="43.65107" lon="3.68575">
        <ele>160.1</ele>
        <time>2022-03-19T09:05:08Z</time>
      </trkpt>
      <trkpt lat="43.65112" lon="3.68551">
        <ele>161.1</ele>
        <time>2022-03-19T09:05:18Z</time>
      </trkpt>
      <trkpt lat="43.65117" lon="3.68529">
        <ele>161.1</ele>
        <time>2022-03-19T09:05:28Z</time>
      </trkpt>
      <trkpt lat="43.65122" lon="3.68508">
        <ele>161.9</ele>
        <time>2022-03-19T09:05:38Z</time>
      </trkpt>
      <trkpt lat="43.65125" lon="3.68488">
        <ele>162.6</ele>
        <time>2022-03-19T09:05:48Z</time>
      </trkpt>
      <trkpt lat="43.65119" lon="3.68467">
        <ele>164.8</ele>
        <time>2022-03-19T09:05:58Z</time>
      </trkpt>
      <trkpt lat="43.65112" lon="3.68449">
        <ele>167.5</ele>
        <time>2022-03-19T09:06:08Z</time>
      </trkpt>
      <trkpt lat="43.65104" lon="3.68432">
        <ele>168.6</ele>
        <time>2022-03-19T09:06:18Z</time>
      </trkpt>
      <trkpt lat="43.65098" lon="3.68412">
        <ele>170.5</ele>
        <time>2022-03-19T09:06:28Z</time>
      </trkpt>
      <trkpt lat="43.65098" lon="3.68392">
        <ele>171.1</ele>
        <time>2022-03-19T09:06:38Z</time>
      </trkpt>
      <trkpt lat="43.65093" lon="3.68373">
        <ele>174.4</ele>
        <time>2022-03-19T09:06:48Z</time>
      </trkpt>
      <trkpt lat="43.65099" lon="3.68359">
        <ele>174.4</ele>
        <time>2022-03-19T09:06:58Z</time>
      </trkpt>
      <trkpt lat="43.65114" lon="3.68355">
        <ele>172.6</ele>
        <time>2022-03-19T09:07:08Z</time>
      </trkpt>
      <trkpt lat="43.65128" lon="3.68356">
        <ele>173.9</ele>
        <time>2022-03-19T09:07:18Z</time>
      </trkpt>
      <trkpt lat="43.65144" lon="3.6835">
        <ele>175.6</ele>
        <time>2022-03-19T09:07:28Z</time>
      </trkpt>
      <trkpt lat="43.65157" lon="3.68345">
        <ele>174.6</ele>
        <time>2022-03-19T09:07:38Z</time>
      </trkpt>
      <trkpt lat="43.65171" lon="3.68332">
        <ele>175.5</ele>
        <time>2022-03-19T09:07:48Z</time>
      </trkpt>
      <trkpt lat="43.65185" lon="3.68321">
        <ele>176</ele>
        <time>2022-03-19T09:07:58Z</time>
      </trkpt>
      <trkpt lat="43.65192" lon="3.68302">
        <ele>179.4</ele>
        <time>2022-03-19T09:08:08Z</time>
      </trkpt>
      <trkpt lat="43.65189" lon="3.68282">
        <ele>180.6</ele>
        <time>2022-03-19T09:08:18Z</time>
      </trkpt>
      <trkpt lat="43.65173" lon="3.68282">
        <ele>182.8</ele>
        <time>2022-03-19T09:08:28Z</time>
      </trkpt>
      <trkpt lat="43.65164" lon="3.6827">
        <ele>184.7</ele>
        <time>2022-03-19T09:08:38Z</time>
      </trkpt>
      <trkpt lat="43.65162" lon="3.68263">
        <ele>185.3</ele>
        <time>2022-03-19T09:08:48Z</time>
      </trkpt>
      <trkpt lat="43.65148" lon="3.68258">
        <ele>187.6</ele>
        <time>2022-03-19T09:09:08Z</time>
      </trkpt>
      <trkpt lat="43.65142" lon="3.68251">
        <ele>188.5</ele>
        <time>2022-03-19T09:09:28Z</time>
      </trkpt>
      <trkpt lat="43.65138" lon="3.68244">
        <ele>190.3</ele>
        <time>2022-03-19T09:09:38Z</time>
      </trkpt>
      <trkpt lat="43.65128" lon="3.68242">
        <ele>191.2</ele>
        <time>2022-03-19T09:09:48Z</time>
      </trkpt>
      <trkpt lat="43.65122" lon="3.68239">
        <ele>192.2</ele>
        <time>2022-03-19T09:10:08Z</time>
      </trkpt>
      <trkpt lat="43.65115" lon="3.68236">
        <ele>193.3</ele>
        <time>2022-03-19T09:10:18Z</time>
      </trkpt>
      <trkpt lat="43.65126" lon="3.68223">
        <ele>195.7</ele>
        <time>2022-03-19T09:11:58Z</time>
      </trkpt>
      <trkpt lat="43.65137" lon="3.68216">
        <ele>196.9</ele>
        <time>2022-03-19T09:12:18Z</time>
      </trkpt>
      <trkpt lat="43.6514" lon="3.68207">
        <ele>199.2</ele>
        <time>2022-03-19T09:12:38Z</time>
      </trkpt>
      <trkpt lat="43.65144" lon="3.682">
        <ele>200.6</ele>
        <time>2022-03-19T09:12:48Z</time>
      </trkpt>
      <trkpt lat="43.65144" lon="3.68187">
        <ele>203.6</ele>
        <time>2022-03-19T09:12:58Z</time>
      </trkpt>
      <trkpt lat="43.65149" lon="3.68172">
        <ele>205.6</ele>
        <time>2022-03-19T09:13:28Z</time>
      </trkpt>
      <trkpt lat="43.65155" lon="3.68166">
        <ele>205.8</ele>
        <time>2022-03-19T09:13:48Z</time>
      </trkpt>
      <trkpt lat="43.65161" lon="3.68147">
        <ele>209.1</ele>
        <time>2022-03-19T09:14:28Z</time>
      </trkpt>
      <trkpt lat="43.6517" lon="3.68135">
        <ele>209.9</ele>
        <time>2022-03-19T09:14:48Z</time>
      </trkpt>
      <trkpt lat="43.6517" lon="3.68122">
        <ele>213.2</ele>
        <time>2022-03-19T09:15:08Z</time>
      </trkpt>
      <trkpt lat="43.65172" lon="3.68115">
        <ele>214.5</ele>
        <time>2022-03-19T09:15:28Z</time>
      </trkpt>
      <trkpt lat="43.65175" lon="3.68107">
        <ele>215.4</ele>
        <time>2022-03-19T09:15:38Z</time>
      </trkpt>
      <trkpt lat="43.65178" lon="3.68099">
        <ele>216.3</ele>
        <time>2022-03-19T09:15:48Z</time>
      </trkpt>
      <trkpt lat="43.65178" lon="3.68086">
        <ele>219</ele>
        <time>2022-03-19T09:16:08Z</time>
      </trkpt>
      <trkpt lat="43.65183" lon="3.68071">
        <ele>221.7</ele>
        <time>2022-03-19T09:16:28Z</time>
      </trkpt>
      <trkpt lat="43.65191" lon="3.68049">
        <ele>224.8</ele>
        <time>2022-03-19T09:16:58Z</time>
      </trkpt>
      <trkpt lat="43.65196" lon="3.68041">
        <ele>225.3</ele>
        <time>2022-03-19T09:17:18Z</time>
      </trkpt>
      <trkpt lat="43.6521" lon="3.68014">
        <ele>229.3</ele>
        <time>2022-03-19T09:17:58Z</time>
      </trkpt>
      <trkpt lat="43.65218" lon="3.68002">
        <ele>229.9</ele>
        <time>2022-03-19T09:18:18Z</time>
      </trkpt>
      <trkpt lat="43.65228" lon="3.67989">
        <ele>230.5</ele>
        <time>2022-03-19T09:18:28Z</time>
      </trkpt>
      <trkpt lat="43.65239" lon="3.67975">
        <ele>230.9</ele>
        <time>2022-03-19T09:18:38Z</time>
      </trkpt>
      <trkpt lat="43.65249" lon="3.67963">
        <ele>231.6</ele>
        <time>2022-03-19T09:18:48Z</time>
      </trkpt>
      <trkpt lat="43.6526" lon="3.6795">
        <ele>234.3</ele>
        <time>2022-03-19T09:18:58Z</time>
      </trkpt>
      <trkpt lat="43.65271" lon="3.67937">
        <ele>236.7</ele>
        <time>2022-03-19T09:19:08Z</time>
      </trkpt>
      <trkpt lat="43.65275" lon="3.67932">
        <ele>237.6</ele>
        <time>2022-03-19T09:19:18Z</time>
      </trkpt>
      <trkpt lat="43.65281" lon="3.67925">
        <ele>239.2</ele>
        <time>2022-03-19T09:19:28Z</time>
      </trkpt>
      <trkpt lat="43.65298" lon="3.67911">
        <ele>242.8</ele>
        <time>2022-03-19T09:19:48Z</time>
      </trkpt>
      <trkpt lat="43.65304" lon="3.67908">
        <ele>243.3</ele>
        <time>2022-03-19T09:20:08Z</time>
      </trkpt>
      <trkpt lat="43.65308" lon="3.67903">
        <ele>244.8</ele>
        <time>2022-03-19T09:20:18Z</time>
      </trkpt>
      <trkpt lat="43.65313" lon="3.67899">
        <ele>246.5</ele>
        <time>2022-03-19T09:20:28Z</time>
      </trkpt>
      <trkpt lat="43.65317" lon="3.67893">
        <ele>248.4</ele>
        <time>2022-03-19T09:20:38Z</time>
      </trkpt>
      <trkpt lat="43.65322" lon="3.67888">
        <ele>249.9</ele>
        <time>2022-03-19T09:20:48Z</time>
      </trkpt>
      <trkpt lat="43.65329" lon="3.67873">
        <ele>251.9</ele>
        <time>2022-03-19T09:20:58Z</time>
      </trkpt>
      <trkpt lat="43.65337" lon="3.67851">
        <ele>255.3</ele>
        <time>2022-03-19T09:21:28Z</time>
      </trkpt>
      <trkpt lat="43.65339" lon="3.67843">
        <ele>256.8</ele>
        <time>2022-03-19T09:21:48Z</time>
      </trkpt>
      <trkpt lat="43.65341" lon="3.67835">
        <ele>258.3</ele>
        <time>2022-03-19T09:21:58Z</time>
      </trkpt>
      <trkpt lat="43.6534" lon="3.67821">
        <ele>259.8</ele>
        <time>2022-03-19T09:22:09Z</time>
      </trkpt>
      <trkpt lat="43.65318" lon="3.67804">
        <ele>261</ele>
        <time>2022-03-19T09:28:39Z</time>
      </trkpt>
      <trkpt lat="43.65309" lon="3.67783">
        <ele>260.9</ele>
        <time>2022-03-19T09:28:59Z</time>
      </trkpt>
      <trkpt lat="43.65288" lon="3.6778">
        <ele>262.8</ele>
        <time>2022-03-19T09:29:09Z</time>
      </trkpt>
      <trkpt lat="43.65268" lon="3.67781">
        <ele>264.9</ele>
        <time>2022-03-19T09:29:19Z</time>
      </trkpt>
      <trkpt lat="43.65252" lon="3.67784">
        <ele>267</ele>
        <time>2022-03-19T09:29:29Z</time>
      </trkpt>
      <trkpt lat="43.65236" lon="3.67798">
        <ele>268.6</ele>
        <time>2022-03-19T09:29:39Z</time>
      </trkpt>
      <trkpt lat="43.65219" lon="3.67803">
        <ele>269.9</ele>
        <time>2022-03-19T09:29:49Z</time>
      </trkpt>
      <trkpt lat="43.65204" lon="3.67806">
        <ele>270.7</ele>
        <time>2022-03-19T09:29:59Z</time>
      </trkpt>
      <trkpt lat="43.65184" lon="3.67811">
        <ele>271.6</ele>
        <time>2022-03-19T09:30:09Z</time>
      </trkpt>
      <trkpt lat="43.65162" lon="3.67813">
        <ele>272.5</ele>
        <time>2022-03-19T09:30:19Z</time>
      </trkpt>
      <trkpt lat="43.65137" lon="3.67814">
        <ele>272.7</ele>
        <time>2022-03-19T09:30:29Z</time>
      </trkpt>
      <trkpt lat="43.65111" lon="3.67799">
        <ele>272.3</ele>
        <time>2022-03-19T09:30:39Z</time>
      </trkpt>
      <trkpt lat="43.65085" lon="3.67777">
        <ele>271.8</ele>
        <time>2022-03-19T09:30:49Z</time>
      </trkpt>
      <trkpt lat="43.65047" lon="3.6776">
        <ele>271.1</ele>
        <time>2022-03-19T09:30:59Z</time>
      </trkpt>
      <trkpt lat="43.65004" lon="3.67758">
        <ele>270.9</ele>
        <time>2022-03-19T09:31:09Z</time>
      </trkpt>
      <trkpt lat="43.64956" lon="3.67751">
        <ele>269.1</ele>
        <time>2022-03-19T09:31:19Z</time>
      </trkpt>
      <trkpt lat="43.64918" lon="3.67717">
        <ele>267.6</ele>
        <time>2022-03-19T09:31:29Z</time>
      </trkpt>
      <trkpt lat="43.64879" lon="3.67687">
        <ele>266.3</ele>
        <time>2022-03-19T09:31:39Z</time>
      </trkpt>
      <trkpt lat="43.64838" lon="3.67671">
        <ele>265.3</ele>
        <time>2022-03-19T09:31:49Z</time>
      </trkpt>
      <trkpt lat="43.64795" lon="3.67654">
        <ele>262.7</ele>
        <time>2022-03-19T09:31:59Z</time>
      </trkpt>
      <trkpt lat="43.64772" lon="3.6761">
        <ele>259.7</ele>
        <time>2022-03-19T09:32:09Z</time>
      </trkpt>
      <trkpt lat="43.64737" lon="3.67585">
        <ele>256.6</ele>
        <time>2022-03-19T09:32:19Z</time>
      </trkpt>
      <trkpt lat="43.64704" lon="3.67607">
        <ele>255.5</ele>
        <time>2022-03-19T09:32:29Z</time>
      </trkpt>
      <trkpt lat="43.64691" lon="3.67608">
        <ele>254.8</ele>
        <time>2022-03-19T09:32:39Z</time>
      </trkpt>
      <trkpt lat="43.64703" lon="3.67623">
        <ele>256.5</ele>
        <time>2022-03-19T09:32:49Z</time>
      </trkpt>
      <trkpt lat="43.64704" lon="3.67642">
        <ele>257.9</ele>
        <time>2022-03-19T09:33:09Z</time>
      </trkpt>
      <trkpt lat="43.64698" lon="3.67665">
        <ele>259.1</ele>
        <time>2022-03-19T09:33:19Z</time>
      </trkpt>
      <trkpt lat="43.64694" lon="3.67686">
        <ele>260.4</ele>
        <time>2022-03-19T09:33:29Z</time>
      </trkpt>
      <trkpt lat="43.64693" lon="3.67707">
        <ele>261.9</ele>
        <time>2022-03-19T09:33:39Z</time>
      </trkpt>
      <trkpt lat="43.64683" lon="3.67724">
        <ele>262.7</ele>
        <time>2022-03-19T09:33:49Z</time>
      </trkpt>
      <trkpt lat="43.64684" lon="3.67745">
        <ele>263.4</ele>
        <time>2022-03-19T09:33:59Z</time>
      </trkpt>
      <trkpt lat="43.64682" lon="3.67767">
        <ele>264.2</ele>
        <time>2022-03-19T09:34:09Z</time>
      </trkpt>
      <trkpt lat="43.64673" lon="3.67787">
        <ele>264.6</ele>
        <time>2022-03-19T09:34:19Z</time>
      </trkpt>
      <trkpt lat="43.64664" lon="3.67807">
        <ele>265</ele>
        <time>2022-03-19T09:34:29Z</time>
      </trkpt>
      <trkpt lat="43.64668" lon="3.67831">
        <ele>266</ele>
        <time>2022-03-19T09:34:39Z</time>
      </trkpt>
      <trkpt lat="43.64672" lon="3.67854">
        <ele>266.9</ele>
        <time>2022-03-19T09:34:49Z</time>
      </trkpt>
      <trkpt lat="43.64671" lon="3.67875">
        <ele>267.2</ele>
        <time>2022-03-19T09:34:59Z</time>
      </trkpt>
      <trkpt lat="43.64672" lon="3.67899">
        <ele>266.9</ele>
        <time>2022-03-19T09:35:09Z</time>
      </trkpt>
      <trkpt lat="43.64654" lon="3.67917">
        <ele>265</ele>
        <time>2022-03-19T09:35:19Z</time>
      </trkpt>
      <trkpt lat="43.64658" lon="3.67938">
        <ele>262.3</ele>
        <time>2022-03-19T09:35:29Z</time>
      </trkpt>
      <trkpt lat="43.64659" lon="3.67956">
        <ele>259.7</ele>
        <time>2022-03-19T09:35:39Z</time>
      </trkpt>
      <trkpt lat="43.64654" lon="3.67972">
        <ele>256.7</ele>
        <time>2022-03-19T09:35:49Z</time>
      </trkpt>
      <trkpt lat="43.64631" lon="3.67972">
        <ele>254.2</ele>
        <time>2022-03-19T09:36:09Z</time>
      </trkpt>
      <trkpt lat="43.64593" lon="3.6796">
        <ele>250.1</ele>
        <time>2022-03-19T09:36:29Z</time>
      </trkpt>
      <trkpt lat="43.64539" lon="3.67957">
        <ele>244.7</ele>
        <time>2022-03-19T09:36:39Z</time>
      </trkpt>
      <trkpt lat="43.64498" lon="3.6796">
        <ele>245.7</ele>
        <time>2022-03-19T09:36:49Z</time>
      </trkpt>
      <trkpt lat="43.64463" lon="3.67961">
        <ele>246.8</ele>
        <time>2022-03-19T09:36:59Z</time>
      </trkpt>
      <trkpt lat="43.64431" lon="3.67966">
        <ele>246.4</ele>
        <time>2022-03-19T09:37:09Z</time>
      </trkpt>
      <trkpt lat="43.64414" lon="3.67968">
        <ele>246.1</ele>
        <time>2022-03-19T09:37:19Z</time>
      </trkpt>
      <trkpt lat="43.64391" lon="3.67955">
        <ele>248.5</ele>
        <time>2022-03-19T09:37:59Z</time>
      </trkpt>
      <trkpt lat="43.64377" lon="3.67943">
        <ele>250.8</ele>
        <time>2022-03-19T09:38:19Z</time>
      </trkpt>
      <trkpt lat="43.6436" lon="3.67937">
        <ele>251.3</ele>
        <time>2022-03-19T09:38:29Z</time>
      </trkpt>
      <trkpt lat="43.64342" lon="3.6793">
        <ele>252.2</ele>
        <time>2022-03-19T09:38:39Z</time>
      </trkpt>
      <trkpt lat="43.64321" lon="3.67923">
        <ele>253.1</ele>
        <time>2022-03-19T09:38:49Z</time>
      </trkpt>
      <trkpt lat="43.64299" lon="3.67914">
        <ele>254.6</ele>
        <time>2022-03-19T09:38:59Z</time>
      </trkpt>
      <trkpt lat="43.64278" lon="3.67904">
        <ele>256.4</ele>
        <time>2022-03-19T09:39:09Z</time>
      </trkpt>
      <trkpt lat="43.64259" lon="3.67892">
        <ele>257.6</ele>
        <time>2022-03-19T09:39:19Z</time>
      </trkpt>
      <trkpt lat="43.64239" lon="3.6788">
        <ele>258.6</ele>
        <time>2022-03-19T09:39:29Z</time>
      </trkpt>
      <trkpt lat="43.64215" lon="3.67869">
        <ele>259.4</ele>
        <time>2022-03-19T09:39:39Z</time>
      </trkpt>
      <trkpt lat="43.64193" lon="3.67859">
        <ele>260.2</ele>
        <time>2022-03-19T09:39:49Z</time>
      </trkpt>
      <trkpt lat="43.64169" lon="3.67848">
        <ele>260.9</ele>
        <time>2022-03-19T09:39:59Z</time>
      </trkpt>
      <trkpt lat="43.64143" lon="3.67832">
        <ele>262.1</ele>
        <time>2022-03-19T09:40:09Z</time>
      </trkpt>
      <trkpt lat="43.64117" lon="3.67811">
        <ele>262.6</ele>
        <time>2022-03-19T09:40:19Z</time>
      </trkpt>
      <trkpt lat="43.64092" lon="3.67784">
        <ele>262.6</ele>
        <time>2022-03-19T09:40:29Z</time>
      </trkpt>
      <trkpt lat="43.64071" lon="3.67746">
        <ele>263.2</ele>
        <time>2022-03-19T09:40:39Z</time>
      </trkpt>
      <trkpt lat="43.64049" lon="3.67707">
        <ele>262.7</ele>
        <time>2022-03-19T09:40:49Z</time>
      </trkpt>
      <trkpt lat="43.64027" lon="3.67669">
        <ele>262.9</ele>
        <time>2022-03-19T09:40:59Z</time>
      </trkpt>
      <trkpt lat="43.64014" lon="3.67634">
        <ele>264.8</ele>
        <time>2022-03-19T09:41:09Z</time>
      </trkpt>
      <trkpt lat="43.63998" lon="3.67627">
        <ele>264.9</ele>
        <time>2022-03-19T09:41:49Z</time>
      </trkpt>
      <trkpt lat="43.63974" lon="3.67639">
        <ele>264</ele>
        <time>2022-03-19T09:42:09Z</time>
      </trkpt>
      <trkpt lat="43.63948" lon="3.67651">
        <ele>264.1</ele>
        <time>2022-03-19T09:42:19Z</time>
      </trkpt>
      <trkpt lat="43.63916" lon="3.67664">
        <ele>263.2</ele>
        <time>2022-03-19T09:42:29Z</time>
      </trkpt>
      <trkpt lat="43.63895" lon="3.67677">
        <ele>263</ele>
        <time>2022-03-19T09:42:39Z</time>
      </trkpt>
      <trkpt lat="43.63872" lon="3.67696">
        <ele>261.9</ele>
        <time>2022-03-19T09:42:49Z</time>
      </trkpt>
      <trkpt lat="43.63838" lon="3.67691">
        <ele>262.3</ele>
        <time>2022-03-19T09:42:59Z</time>
      </trkpt>
      <trkpt lat="43.63799" lon="3.67685">
        <ele>261.7</ele>
        <time>2022-03-19T09:43:09Z</time>
      </trkpt>
      <trkpt lat="43.63757" lon="3.67686">
        <ele>261.8</ele>
        <time>2022-03-19T09:43:19Z</time>
      </trkpt>
      <trkpt lat="43.63734" lon="3.67689">
        <ele>260.4</ele>
        <time>2022-03-19T09:43:29Z</time>
      </trkpt>
      <trkpt lat="43.63726" lon="3.67692">
        <ele>259.5</ele>
        <time>2022-03-19T09:43:39Z</time>
      </trkpt>
      <trkpt lat="43.63718" lon="3.67695">
        <ele>259</ele>
        <time>2022-03-19T09:43:49Z</time>
      </trkpt>
      <trkpt lat="43.63711" lon="3.6771">
        <ele>257.9</ele>
        <time>2022-03-19T09:44:09Z</time>
      </trkpt>
      <trkpt lat="43.63707" lon="3.67717">
        <ele>257.4</ele>
        <time>2022-03-19T09:44:29Z</time>
      </trkpt>
      <trkpt lat="43.63689" lon="3.6772">
        <ele>257.2</ele>
        <time>2022-03-19T09:44:39Z</time>
      </trkpt>
      <trkpt lat="43.63668" lon="3.67735">
        <ele>255.2</ele>
        <time>2022-03-19T09:44:59Z</time>
      </trkpt>
      <trkpt lat="43.63651" lon="3.67742">
        <ele>254.6</ele>
        <time>2022-03-19T09:45:09Z</time>
      </trkpt>
      <trkpt lat="43.63625" lon="3.67768">
        <ele>250.1</ele>
        <time>2022-03-19T09:46:29Z</time>
      </trkpt>
      <trkpt lat="43.63605" lon="3.67777">
        <ele>248.7</ele>
        <time>2022-03-19T09:46:49Z</time>
      </trkpt>
      <trkpt lat="43.63585" lon="3.67785">
        <ele>245.5</ele>
        <time>2022-03-19T09:46:59Z</time>
      </trkpt>
      <trkpt lat="43.6357" lon="3.67796">
        <ele>243.4</ele>
        <time>2022-03-19T09:47:09Z</time>
      </trkpt>
      <trkpt lat="43.63548" lon="3.678">
        <ele>243.6</ele>
        <time>2022-03-19T09:47:29Z</time>
      </trkpt>
      <trkpt lat="43.63529" lon="3.67806">
        <ele>243.8</ele>
        <time>2022-03-19T09:47:39Z</time>
      </trkpt>
      <trkpt lat="43.63508" lon="3.67823">
        <ele>240.1</ele>
        <time>2022-03-19T09:47:49Z</time>
      </trkpt>
      <trkpt lat="43.6347" lon="3.67838">
        <ele>237.7</ele>
        <time>2022-03-19T09:47:59Z</time>
      </trkpt>
      <trkpt lat="43.63436" lon="3.67848">
        <ele>233.6</ele>
        <time>2022-03-19T09:48:09Z</time>
      </trkpt>
      <trkpt lat="43.63411" lon="3.67869">
        <ele>227.7</ele>
        <time>2022-03-19T09:48:19Z</time>
      </trkpt>
      <trkpt lat="43.6339" lon="3.67929">
        <ele>220.4</ele>
        <time>2022-03-19T09:48:29Z</time>
      </trkpt>
      <trkpt lat="43.63372" lon="3.67971">
        <ele>218.7</ele>
        <time>2022-03-19T09:48:39Z</time>
      </trkpt>
      <trkpt lat="43.63358" lon="3.68001">
        <ele>215.9</ele>
        <time>2022-03-19T09:48:49Z</time>
      </trkpt>
      <trkpt lat="43.6333" lon="3.68026">
        <ele>210.2</ele>
        <time>2022-03-19T09:48:59Z</time>
      </trkpt>
      <trkpt lat="43.63316" lon="3.68062">
        <ele>205.1</ele>
        <time>2022-03-19T09:49:09Z</time>
      </trkpt>
      <trkpt lat="43.63298" lon="3.68096">
        <ele>201.6</ele>
        <time>2022-03-19T09:49:19Z</time>
      </trkpt>
      <trkpt lat="43.63288" lon="3.68133">
        <ele>198.5</ele>
        <time>2022-03-19T09:49:29Z</time>
      </trkpt>
      <trkpt lat="43.6328" lon="3.68175">
        <ele>196.4</ele>
        <time>2022-03-19T09:49:39Z</time>
      </trkpt>
      <trkpt lat="43.63277" lon="3.68225">
        <ele>192.9</ele>
        <time>2022-03-19T09:49:49Z</time>
      </trkpt>
      <trkpt lat="43.6327" lon="3.68271">
        <ele>192</ele>
        <time>2022-03-19T09:49:59Z</time>
      </trkpt>
      <trkpt lat="43.63262" lon="3.68304">
        <ele>192</ele>
        <time>2022-03-19T09:50:09Z</time>
      </trkpt>
      <trkpt lat="43.63253" lon="3.68334">
        <ele>189.2</ele>
        <time>2022-03-19T09:50:19Z</time>
      </trkpt>
      <trkpt lat="43.63244" lon="3.6836">
        <ele>186.4</ele>
        <time>2022-03-19T09:50:29Z</time>
      </trkpt>
      <trkpt lat="43.6323" lon="3.68382">
        <ele>184.2</ele>
        <time>2022-03-19T09:50:39Z</time>
      </trkpt>
      <trkpt lat="43.63219" lon="3.68403">
        <ele>181.1</ele>
        <time>2022-03-19T09:50:49Z</time>
      </trkpt>
      <trkpt lat="43.63203" lon="3.68435">
        <ele>177.5</ele>
        <time>2022-03-19T09:50:59Z</time>
      </trkpt>
      <trkpt lat="43.63177" lon="3.68468">
        <ele>171.2</ele>
        <time>2022-03-19T09:51:09Z</time>
      </trkpt>
      <trkpt lat="43.63151" lon="3.68503">
        <ele>167.2</ele>
        <time>2022-03-19T09:51:19Z</time>
      </trkpt>
      <trkpt lat="43.63133" lon="3.68523">
        <ele>163.6</ele>
        <time>2022-03-19T09:52:09Z</time>
      </trkpt>
      <trkpt lat="43.63128" lon="3.68547">
        <ele>162.8</ele>
        <time>2022-03-19T09:52:29Z</time>
      </trkpt>
      <trkpt lat="43.63137" lon="3.68568">
        <ele>164.2</ele>
        <time>2022-03-19T09:52:39Z</time>
      </trkpt>
      <trkpt lat="43.63135" lon="3.68588">
        <ele>161.8</ele>
        <time>2022-03-19T09:52:49Z</time>
      </trkpt>
      <trkpt lat="43.63133" lon="3.68612">
        <ele>158.2</ele>
        <time>2022-03-19T09:52:59Z</time>
      </trkpt>
      <trkpt lat="43.63127" lon="3.68645">
        <ele>152</ele>
        <time>2022-03-19T09:53:09Z</time>
      </trkpt>
      <trkpt lat="43.63122" lon="3.68681">
        <ele>145.2</ele>
        <time>2022-03-19T09:53:19Z</time>
      </trkpt>
      <trkpt lat="43.63117" lon="3.68715">
        <ele>140.6</ele>
        <time>2022-03-19T09:53:29Z</time>
      </trkpt>
      <trkpt lat="43.63141" lon="3.68734">
        <ele>139.3</ele>
        <time>2022-03-19T09:54:29Z</time>
      </trkpt>
      <trkpt lat="43.63173" lon="3.68752">
        <ele>139.3</ele>
        <time>2022-03-19T09:54:49Z</time>
      </trkpt>
      <trkpt lat="43.63201" lon="3.68768">
        <ele>139.4</ele>
        <time>2022-03-19T09:54:59Z</time>
      </trkpt>
      <trkpt lat="43.6323" lon="3.68781">
        <ele>139.5</ele>
        <time>2022-03-19T09:55:09Z</time>
      </trkpt>
      <trkpt lat="43.63261" lon="3.68798">
        <ele>140</ele>
        <time>2022-03-19T09:55:19Z</time>
      </trkpt>
      <trkpt lat="43.63293" lon="3.68809">
        <ele>140.6</ele>
        <time>2022-03-19T09:55:29Z</time>
      </trkpt>
      <trkpt lat="43.63321" lon="3.68807">
        <ele>141.8</ele>
        <time>2022-03-19T09:55:39Z</time>
      </trkpt>
      <trkpt lat="43.63351" lon="3.68802">
        <ele>142.6</ele>
        <time>2022-03-19T09:55:49Z</time>
      </trkpt>
      <trkpt lat="43.63377" lon="3.68797">
        <ele>143.5</ele>
        <time>2022-03-19T09:55:59Z</time>
      </trkpt>
      <trkpt lat="43.63397" lon="3.68789">
        <ele>144.2</ele>
        <time>2022-03-19T09:56:09Z</time>
      </trkpt>
      <trkpt lat="43.63419" lon="3.68785">
        <ele>144.6</ele>
        <time>2022-03-19T09:56:19Z</time>
      </trkpt>
      <trkpt lat="43.63442" lon="3.68784">
        <ele>145.5</ele>
        <time>2022-03-19T09:56:29Z</time>
      </trkpt>
      <trkpt lat="43.63466" lon="3.68788">
        <ele>145.8</ele>
        <time>2022-03-19T09:56:39Z</time>
      </trkpt>
      <trkpt lat="43.63488" lon="3.68788">
        <ele>145.9</ele>
        <time>2022-03-19T09:56:49Z</time>
      </trkpt>
      <trkpt lat="43.63511" lon="3.6878">
        <ele>146.4</ele>
        <time>2022-03-19T09:56:59Z</time>
      </trkpt>
      <trkpt lat="43.63532" lon="3.68769">
        <ele>147.2</ele>
        <time>2022-03-19T09:57:09Z</time>
      </trkpt>
      <trkpt lat="43.6355" lon="3.68757">
        <ele>148.8</ele>
        <time>2022-03-19T09:57:19Z</time>
      </trkpt>
      <trkpt lat="43.63574" lon="3.68753">
        <ele>148.3</ele>
        <time>2022-03-19T09:57:29Z</time>
      </trkpt>
      <trkpt lat="43.63604" lon="3.68749">
        <ele>147.5</ele>
        <time>2022-03-19T09:57:39Z</time>
      </trkpt>
      <trkpt lat="43.63637" lon="3.68745">
        <ele>147.1</ele>
        <time>2022-03-19T09:57:49Z</time>
      </trkpt>
      <trkpt lat="43.6366" lon="3.68755">
        <ele>142.3</ele>
        <time>2022-03-19T09:57:59Z</time>
      </trkpt>
      <trkpt lat="43.63651" lon="3.68784">
        <ele>140.2</ele>
        <time>2022-03-19T09:58:09Z</time>
      </trkpt>
      <trkpt lat="43.63634" lon="3.68825">
        <ele>139</ele>
        <time>2022-03-19T09:58:19Z</time>
      </trkpt>
      <trkpt lat="43.63602" lon="3.68859">
        <ele>138.2</ele>
        <time>2022-03-19T09:58:29Z</time>
      </trkpt>
      <trkpt lat="43.63575" lon="3.68907">
        <ele>136.3</ele>
        <time>2022-03-19T09:58:39Z</time>
      </trkpt>
      <trkpt lat="43.63554" lon="3.68983">
        <ele>133.6</ele>
        <time>2022-03-19T09:58:49Z</time>
      </trkpt>
      <trkpt lat="43.63534" lon="3.69063">
        <ele>130.8</ele>
        <time>2022-03-19T09:58:59Z</time>
      </trkpt>
      <trkpt lat="43.63514" lon="3.69138">
        <ele>129</ele>
        <time>2022-03-19T09:59:09Z</time>
      </trkpt>
      <trkpt lat="43.63495" lon="3.6921">
        <ele>127</ele>
        <time>2022-03-19T09:59:19Z</time>
      </trkpt>
      <trkpt lat="43.63486" lon="3.6927">
        <ele>126.1</ele>
        <time>2022-03-19T09:59:29Z</time>
      </trkpt>
      <trkpt lat="43.63477" lon="3.69311">
        <ele>125</ele>
        <time>2022-03-19T09:59:39Z</time>
      </trkpt>
      <trkpt lat="43.6345" lon="3.69374">
        <ele>123</ele>
        <time>2022-03-19T09:59:49Z</time>
      </trkpt>
      <trkpt lat="43.63414" lon="3.69408">
        <ele>125.6</ele>
        <time>2022-03-19T09:59:59Z</time>
      </trkpt>
      <trkpt lat="43.63411" lon="3.69444">
        <ele>128.4</ele>
        <time>2022-03-19T10:00:09Z</time>
      </trkpt>
      <trkpt lat="43.63408" lon="3.69472">
        <ele>130.6</ele>
        <time>2022-03-19T10:00:19Z</time>
      </trkpt>
      <trkpt lat="43.63405" lon="3.69496">
        <ele>132.6</ele>
        <time>2022-03-19T10:00:29Z</time>
      </trkpt>
      <trkpt lat="43.63404" lon="3.69519">
        <ele>134.3</ele>
        <time>2022-03-19T10:00:39Z</time>
      </trkpt>
      <trkpt lat="43.634" lon="3.69541">
        <ele>135.9</ele>
        <time>2022-03-19T10:00:49Z</time>
      </trkpt>
      <trkpt lat="43.63393" lon="3.69561">
        <ele>137.1</ele>
        <time>2022-03-19T10:00:59Z</time>
      </trkpt>
      <trkpt lat="43.63385" lon="3.69583">
        <ele>137.8</ele>
        <time>2022-03-19T10:01:09Z</time>
      </trkpt>
      <trkpt lat="43.63373" lon="3.6962">
        <ele>137.7</ele>
        <time>2022-03-19T10:01:19Z</time>
      </trkpt>
      <trkpt lat="43.63358" lon="3.6966">
        <ele>137.5</ele>
        <time>2022-03-19T10:01:29Z</time>
      </trkpt>
      <trkpt lat="43.63346" lon="3.69725">
        <ele>139</ele>
        <time>2022-03-19T10:01:39Z</time>
      </trkpt>
      <trkpt lat="43.63348" lon="3.69762">
        <ele>140.7</ele>
        <time>2022-03-19T10:01:49Z</time>
      </trkpt>
      <trkpt lat="43.63347" lon="3.69797">
        <ele>142.2</ele>
        <time>2022-03-19T10:01:59Z</time>
      </trkpt>
      <trkpt lat="43.63343" lon="3.69835">
        <ele>143.4</ele>
        <time>2022-03-19T10:02:09Z</time>
      </trkpt>
      <trkpt lat="43.63342" lon="3.69875">
        <ele>144.3</ele>
        <time>2022-03-19T10:02:19Z</time>
      </trkpt>
      <trkpt lat="43.63341" lon="3.69914">
        <ele>145</ele>
        <time>2022-03-19T10:02:29Z</time>
      </trkpt>
      <trkpt lat="43.6335" lon="3.69947">
        <ele>145.5</ele>
        <time>2022-03-19T10:02:39Z</time>
      </trkpt>
      <trkpt lat="43.63355" lon="3.69988">
        <ele>146.1</ele>
        <time>2022-03-19T10:02:49Z</time>
      </trkpt>
      <trkpt lat="43.63353" lon="3.70032">
        <ele>147.3</ele>
        <time>2022-03-19T10:02:59Z</time>
      </trkpt>
      <trkpt lat="43.63355" lon="3.70071">
        <ele>147.8</ele>
        <time>2022-03-19T10:03:09Z</time>
      </trkpt>
      <trkpt lat="43.63358" lon="3.70103">
        <ele>148.7</ele>
        <time>2022-03-19T10:03:19Z</time>
      </trkpt>
      <trkpt lat="43.63359" lon="3.70134">
        <ele>150.6</ele>
        <time>2022-03-19T10:03:29Z</time>
      </trkpt>
      <trkpt lat="43.63361" lon="3.70163">
        <ele>151</ele>
        <time>2022-03-19T10:03:39Z</time>
      </trkpt>
      <trkpt lat="43.6336" lon="3.7019">
        <ele>151.8</ele>
        <time>2022-03-19T10:03:49Z</time>
      </trkpt>
      <trkpt lat="43.63361" lon="3.70221">
        <ele>153</ele>
        <time>2022-03-19T10:03:59Z</time>
      </trkpt>
      <trkpt lat="43.6335" lon="3.70248">
        <ele>152.6</ele>
        <time>2022-03-19T10:04:09Z</time>
      </trkpt>
      <trkpt lat="43.63357" lon="3.70283">
        <ele>153.7</ele>
        <time>2022-03-19T10:04:19Z</time>
      </trkpt>
      <trkpt lat="43.63366" lon="3.70321">
        <ele>154.2</ele>
        <time>2022-03-19T10:04:29Z</time>
      </trkpt>
      <trkpt lat="43.63361" lon="3.70356">
        <ele>154.8</ele>
        <time>2022-03-19T10:04:39Z</time>
      </trkpt>
      <trkpt lat="43.63355" lon="3.70389">
        <ele>154.8</ele>
        <time>2022-03-19T10:04:49Z</time>
      </trkpt>
      <trkpt lat="43.63359" lon="3.70432">
        <ele>154.4</ele>
        <time>2022-03-19T10:04:59Z</time>
      </trkpt>
      <trkpt lat="43.63369" lon="3.70479">
        <ele>153.8</ele>
        <time>2022-03-19T10:05:09Z</time>
      </trkpt>
      <trkpt lat="43.63377" lon="3.70531">
        <ele>152.9</ele>
        <time>2022-03-19T10:05:19Z</time>
      </trkpt>
      <trkpt lat="43.63387" lon="3.70588">
        <ele>151</ele>
        <time>2022-03-19T10:05:29Z</time>
      </trkpt>
      <trkpt lat="43.6341" lon="3.70631">
        <ele>151.6</ele>
        <time>2022-03-19T10:05:39Z</time>
      </trkpt>
      <trkpt lat="43.63417" lon="3.70692">
        <ele>152</ele>
        <time>2022-03-19T10:05:49Z</time>
      </trkpt>
      <trkpt lat="43.63427" lon="3.70749">
        <ele>152.4</ele>
        <time>2022-03-19T10:05:59Z</time>
      </trkpt>
      <trkpt lat="43.63437" lon="3.70813">
        <ele>152.7</ele>
        <time>2022-03-19T10:06:09Z</time>
      </trkpt>
      <trkpt lat="43.63446" lon="3.70875">
        <ele>152.5</ele>
        <time>2022-03-19T10:06:19Z</time>
      </trkpt>
      <trkpt lat="43.63481" lon="3.70895">
        <ele>152.8</ele>
        <time>2022-03-19T10:06:29Z</time>
      </trkpt>
      <trkpt lat="43.63516" lon="3.70911">
        <ele>152.7</ele>
        <time>2022-03-19T10:06:39Z</time>
      </trkpt>
      <trkpt lat="43.63543" lon="3.70884">
        <ele>153.7</ele>
        <time>2022-03-19T10:06:49Z</time>
      </trkpt>
      <trkpt lat="43.63558" lon="3.70852">
        <ele>155.3</ele>
        <time>2022-03-19T10:06:59Z</time>
      </trkpt>
      <trkpt lat="43.63573" lon="3.70859">
        <ele>155.1</ele>
        <time>2022-03-19T10:07:09Z</time>
      </trkpt>
      <trkpt lat="43.63578" lon="3.70894">
        <ele>154</ele>
        <time>2022-03-19T10:07:19Z</time>
      </trkpt>
      <trkpt lat="43.63583" lon="3.70935">
        <ele>154</ele>
        <time>2022-03-19T10:07:29Z</time>
      </trkpt>
      <trkpt lat="43.6359" lon="3.70979">
        <ele>154.1</ele>
        <time>2022-03-19T10:07:39Z</time>
      </trkpt>
      <trkpt lat="43.63608" lon="3.71012">
        <ele>154.9</ele>
        <time>2022-03-19T10:07:49Z</time>
      </trkpt>
      <trkpt lat="43.63614" lon="3.71043">
        <ele>154.3</ele>
        <time>2022-03-19T10:07:59Z</time>
      </trkpt>
      <trkpt lat="43.63607" lon="3.71096">
        <ele>154</ele>
        <time>2022-03-19T10:08:09Z</time>
      </trkpt>
      <trkpt lat="43.63615" lon="3.71159">
        <ele>153.1</ele>
        <time>2022-03-19T10:08:19Z</time>
      </trkpt>
      <trkpt lat="43.63629" lon="3.71213">
        <ele>152.1</ele>
        <time>2022-03-19T10:08:29Z</time>
      </trkpt>
      <trkpt lat="43.63654" lon="3.71272">
        <ele>150.6</ele>
        <time>2022-03-19T10:08:39Z</time>
      </trkpt>
      <trkpt lat="43.63685" lon="3.7132">
        <ele>149.6</ele>
        <time>2022-03-19T10:08:49Z</time>
      </trkpt>
      <trkpt lat="43.63696" lon="3.71368">
        <ele>147.5</ele>
        <time>2022-03-19T10:08:59Z</time>
      </trkpt>
      <trkpt lat="43.63684" lon="3.71414">
        <ele>146</ele>
        <time>2022-03-19T10:09:09Z</time>
      </trkpt>
      <trkpt lat="43.63672" lon="3.71438">
        <ele>145.9</ele>
        <time>2022-03-19T10:09:19Z</time>
      </trkpt>
      <trkpt lat="43.6366" lon="3.71458">
        <ele>146.4</ele>
        <time>2022-03-19T10:09:29Z</time>
      </trkpt>
      <trkpt lat="43.63641" lon="3.71482">
        <ele>147.2</ele>
        <time>2022-03-19T10:09:39Z</time>
      </trkpt>
      <trkpt lat="43.63625" lon="3.71509">
        <ele>148.5</ele>
        <time>2022-03-19T10:09:49Z</time>
      </trkpt>
      <trkpt lat="43.63607" lon="3.71539">
        <ele>149.4</ele>
        <time>2022-03-19T10:09:59Z</time>
      </trkpt>
      <trkpt lat="43.63588" lon="3.71571">
        <ele>150.5</ele>
        <time>2022-03-19T10:10:09Z</time>
      </trkpt>
      <trkpt lat="43.63572" lon="3.71611">
        <ele>150.6</ele>
        <time>2022-03-19T10:10:19Z</time>
      </trkpt>
      <trkpt lat="43.63557" lon="3.71657">
        <ele>151</ele>
        <time>2022-03-19T10:10:29Z</time>
      </trkpt>
      <trkpt lat="43.63546" lon="3.71703">
        <ele>150.1</ele>
        <time>2022-03-19T10:10:39Z</time>
      </trkpt>
      <trkpt lat="43.63559" lon="3.71731">
        <ele>149.4</ele>
        <time>2022-03-19T10:10:49Z</time>
      </trkpt>
      <trkpt lat="43.63598" lon="3.71757">
        <ele>146.2</ele>
        <time>2022-03-19T10:10:59Z</time>
      </trkpt>
      <trkpt lat="43.6364" lon="3.71781">
        <ele>144.1</ele>
        <time>2022-03-19T10:11:09Z</time>
      </trkpt>
      <trkpt lat="43.63642" lon="3.71818">
        <ele>145.4</ele>
        <time>2022-03-19T10:11:19Z</time>
      </trkpt>
      <trkpt lat="43.6364" lon="3.71861">
        <ele>148</ele>
        <time>2022-03-19T10:11:29Z</time>
      </trkpt>
      <trkpt lat="43.63662" lon="3.71886">
        <ele>149.1</ele>
        <time>2022-03-19T10:11:39Z</time>
      </trkpt>
      <trkpt lat="43.6367" lon="3.71916">
        <ele>150.1</ele>
        <time>2022-03-19T10:11:49Z</time>
      </trkpt>
      <trkpt lat="43.63683" lon="3.71945">
        <ele>151</ele>
        <time>2022-03-19T10:11:59Z</time>
      </trkpt>
      <trkpt lat="43.63695" lon="3.71972">
        <ele>151</ele>
        <time>2022-03-19T10:12:09Z</time>
      </trkpt>
      <trkpt lat="43.63712" lon="3.72001">
        <ele>149.9</ele>
        <time>2022-03-19T10:12:19Z</time>
      </trkpt>
      <trkpt lat="43.6373" lon="3.72041">
        <ele>146.3</ele>
        <time>2022-03-19T10:12:29Z</time>
      </trkpt>
      <trkpt lat="43.63742" lon="3.72096">
        <ele>146.9</ele>
        <time>2022-03-19T10:12:39Z</time>
      </trkpt>
      <trkpt lat="43.63743" lon="3.7213">
        <ele>149.1</ele>
        <time>2022-03-19T10:12:49Z</time>
      </trkpt>
      <trkpt lat="43.63742" lon="3.72154">
        <ele>150.4</ele>
        <time>2022-03-19T10:12:59Z</time>
      </trkpt>
      <trkpt lat="43.63749" lon="3.72181">
        <ele>150.6</ele>
        <time>2022-03-19T10:13:09Z</time>
      </trkpt>
      <trkpt lat="43.63769" lon="3.72219">
        <ele>149.2</ele>
        <time>2022-03-19T10:13:19Z</time>
      </trkpt>
      <trkpt lat="43.63765" lon="3.72274">
        <ele>148.1</ele>
        <time>2022-03-19T10:13:29Z</time>
      </trkpt>
      <trkpt lat="43.63773" lon="3.72333">
        <ele>146.8</ele>
        <time>2022-03-19T10:13:39Z</time>
      </trkpt>
      <trkpt lat="43.63775" lon="3.72382">
        <ele>148.3</ele>
        <time>2022-03-19T10:13:49Z</time>
      </trkpt>
      <trkpt lat="43.63785" lon="3.72415">
        <ele>149.9</ele>
        <time>2022-03-19T10:13:59Z</time>
      </trkpt>
      <trkpt lat="43.63783" lon="3.72447">
        <ele>151</ele>
        <time>2022-03-19T10:14:09Z</time>
      </trkpt>
      <trkpt lat="43.63775" lon="3.72477">
        <ele>151.6</ele>
        <time>2022-03-19T10:14:19Z</time>
      </trkpt>
      <trkpt lat="43.63774" lon="3.72509">
        <ele>153</ele>
        <time>2022-03-19T10:14:29Z</time>
      </trkpt>
      <trkpt lat="43.63778" lon="3.72537">
        <ele>154.3</ele>
        <time>2022-03-19T10:14:39Z</time>
      </trkpt>
      <trkpt lat="43.63771" lon="3.7256">
        <ele>155.1</ele>
        <time>2022-03-19T10:14:49Z</time>
      </trkpt>
      <trkpt lat="43.63762" lon="3.72583">
        <ele>155.4</ele>
        <time>2022-03-19T10:14:59Z</time>
      </trkpt>
      <trkpt lat="43.63751" lon="3.72606">
        <ele>156.6</ele>
        <time>2022-03-19T10:15:09Z</time>
      </trkpt>
      <trkpt lat="43.63739" lon="3.72627">
        <ele>157.8</ele>
        <time>2022-03-19T10:15:19Z</time>
      </trkpt>
      <trkpt lat="43.63728" lon="3.72649">
        <ele>158.8</ele>
        <time>2022-03-19T10:15:29Z</time>
      </trkpt>
      <trkpt lat="43.63719" lon="3.72669">
        <ele>160.4</ele>
        <time>2022-03-19T10:15:39Z</time>
      </trkpt>
      <trkpt lat="43.63707" lon="3.72691">
        <ele>161.8</ele>
        <time>2022-03-19T10:15:49Z</time>
      </trkpt>
      <trkpt lat="43.63699" lon="3.72712">
        <ele>162.3</ele>
        <time>2022-03-19T10:15:59Z</time>
      </trkpt>
      <trkpt lat="43.63688" lon="3.72733">
        <ele>163.5</ele>
        <time>2022-03-19T10:16:09Z</time>
      </trkpt>
      <trkpt lat="43.63678" lon="3.72753">
        <ele>164.1</ele>
        <time>2022-03-19T10:16:19Z</time>
      </trkpt>
      <trkpt lat="43.63671" lon="3.72776">
        <ele>164.5</ele>
        <time>2022-03-19T10:16:29Z</time>
      </trkpt>
      <trkpt lat="43.63665" lon="3.72803">
        <ele>165</ele>
        <time>2022-03-19T10:16:39Z</time>
      </trkpt>
      <trkpt lat="43.6366" lon="3.72839">
        <ele>164.2</ele>
        <time>2022-03-19T10:16:49Z</time>
      </trkpt>
      <trkpt lat="43.63656" lon="3.72881">
        <ele>164.8</ele>
        <time>2022-03-19T10:16:59Z</time>
      </trkpt>
      <trkpt lat="43.63651" lon="3.72922">
        <ele>165</ele>
        <time>2022-03-19T10:17:09Z</time>
      </trkpt>
      <trkpt lat="43.63647" lon="3.72963">
        <ele>165.4</ele>
        <time>2022-03-19T10:17:19Z</time>
      </trkpt>
      <trkpt lat="43.63643" lon="3.73004">
        <ele>166.4</ele>
        <time>2022-03-19T10:17:29Z</time>
      </trkpt>
      <trkpt lat="43.6364" lon="3.73047">
        <ele>166.7</ele>
        <time>2022-03-19T10:17:39Z</time>
      </trkpt>
      <trkpt lat="43.63636" lon="3.73089">
        <ele>168.2</ele>
        <time>2022-03-19T10:17:49Z</time>
      </trkpt>
      <trkpt lat="43.63631" lon="3.73121">
        <ele>168.9</ele>
        <time>2022-03-19T10:17:59Z</time>
      </trkpt>
      <trkpt lat="43.63631" lon="3.73155">
        <ele>168.9</ele>
        <time>2022-03-19T10:18:09Z</time>
      </trkpt>
      <trkpt lat="43.63628" lon="3.73221">
        <ele>166.2</ele>
        <time>2022-03-19T10:18:19Z</time>
      </trkpt>
      <trkpt lat="43.63629" lon="3.73281">
        <ele>169.4</ele>
        <time>2022-03-19T10:18:29Z</time>
      </trkpt>
      <trkpt lat="43.63638" lon="3.73354">
        <ele>166.4</ele>
        <time>2022-03-19T10:18:39Z</time>
      </trkpt>
      <trkpt lat="43.63645" lon="3.73389">
        <ele>169.1</ele>
        <time>2022-03-19T10:18:49Z</time>
      </trkpt>
      <trkpt lat="43.6365" lon="3.73429">
        <ele>169.3</ele>
        <time>2022-03-19T10:18:59Z</time>
      </trkpt>
      <trkpt lat="43.63654" lon="3.73477">
        <ele>171</ele>
        <time>2022-03-19T10:19:09Z</time>
      </trkpt>
      <trkpt lat="43.63658" lon="3.7351">
        <ele>171.4</ele>
        <time>2022-03-19T10:19:19Z</time>
      </trkpt>
      <trkpt lat="43.63661" lon="3.73561">
        <ele>170.4</ele>
        <time>2022-03-19T10:19:29Z</time>
      </trkpt>
      <trkpt lat="43.63672" lon="3.73626">
        <ele>171.5</ele>
        <time>2022-03-19T10:19:39Z</time>
      </trkpt>
      <trkpt lat="43.63683" lon="3.73682">
        <ele>170.2</ele>
        <time>2022-03-19T10:19:49Z</time>
      </trkpt>
      <trkpt lat="43.63691" lon="3.73755">
        <ele>168.1</ele>
        <time>2022-03-19T10:19:59Z</time>
      </trkpt>
      <trkpt lat="43.63699" lon="3.73834">
        <ele>164.9</ele>
        <time>2022-03-19T10:20:09Z</time>
      </trkpt>
      <trkpt lat="43.63697" lon="3.73904">
        <ele>166.4</ele>
        <time>2022-03-19T10:20:19Z</time>
      </trkpt>
      <trkpt lat="43.63704" lon="3.73979">
        <ele>164.4</ele>
        <time>2022-03-19T10:20:29Z</time>
      </trkpt>
      <trkpt lat="43.63705" lon="3.74048">
        <ele>163.9</ele>
        <time>2022-03-19T10:20:39Z</time>
      </trkpt>
      <trkpt lat="43.63709" lon="3.74131">
        <ele>162.7</ele>
        <time>2022-03-19T10:20:49Z</time>
      </trkpt>
      <trkpt lat="43.63704" lon="3.74155">
        <ele>164.9</ele>
        <time>2022-03-19T10:20:59Z</time>
      </trkpt>
      <trkpt lat="43.63712" lon="3.74188">
        <ele>163.6</ele>
        <time>2022-03-19T10:21:09Z</time>
      </trkpt>
      <trkpt lat="43.63723" lon="3.74226">
        <ele>163.4</ele>
        <time>2022-03-19T10:21:19Z</time>
      </trkpt>
      <trkpt lat="43.63726" lon="3.74253">
        <ele>165.8</ele>
        <time>2022-03-19T10:21:29Z</time>
      </trkpt>
      <trkpt lat="43.63744" lon="3.74296">
        <ele>163.1</ele>
        <time>2022-03-19T10:21:39Z</time>
      </trkpt>
      <trkpt lat="43.63742" lon="3.74329">
        <ele>163</ele>
        <time>2022-03-19T10:21:49Z</time>
      </trkpt>
      <trkpt lat="43.63745" lon="3.74353">
        <ele>164.1</ele>
        <time>2022-03-19T10:21:59Z</time>
      </trkpt>
      <trkpt lat="43.63752" lon="3.74375">
        <ele>164.8</ele>
        <time>2022-03-19T10:22:09Z</time>
      </trkpt>
      <trkpt lat="43.63756" lon="3.74397">
        <ele>165.1</ele>
        <time>2022-03-19T10:22:19Z</time>
      </trkpt>
      <trkpt lat="43.63749" lon="3.74416">
        <ele>166.2</ele>
        <time>2022-03-19T10:22:29Z</time>
      </trkpt>
      <trkpt lat="43.63749" lon="3.74441">
        <ele>167.1</ele>
        <time>2022-03-19T10:22:39Z</time>
      </trkpt>
      <trkpt lat="43.6376" lon="3.74475">
        <ele>166.7</ele>
        <time>2022-03-19T10:22:49Z</time>
      </trkpt>
      <trkpt lat="43.6377" lon="3.74511">
        <ele>166.7</ele>
        <time>2022-03-19T10:22:59Z</time>
      </trkpt>
      <trkpt lat="43.6377" lon="3.74542">
        <ele>167.5</ele>
        <time>2022-03-19T10:23:09Z</time>
      </trkpt>
      <trkpt lat="43.63771" lon="3.7456">
        <ele>167.9</ele>
        <time>2022-03-19T10:25:39Z</time>
      </trkpt>
      <trkpt lat="43.63775" lon="3.74603">
        <ele>168.9</ele>
        <time>2022-03-19T10:25:59Z</time>
      </trkpt>
      <trkpt lat="43.63791" lon="3.74659">
        <ele>168</ele>
        <time>2022-03-19T10:26:09Z</time>
      </trkpt>
      <trkpt lat="43.63807" lon="3.74715">
        <ele>166.9</ele>
        <time>2022-03-19T10:26:19Z</time>
      </trkpt>
      <trkpt lat="43.63825" lon="3.74777">
        <ele>165.3</ele>
        <time>2022-03-19T10:26:29Z</time>
      </trkpt>
      <trkpt lat="43.63846" lon="3.74851">
        <ele>163.7</ele>
        <time>2022-03-19T10:26:39Z</time>
      </trkpt>
      <trkpt lat="43.63854" lon="3.74933">
        <ele>160.4</ele>
        <time>2022-03-19T10:26:49Z</time>
      </trkpt>
      <trkpt lat="43.63828" lon="3.74942">
        <ele>159.9</ele>
        <time>2022-03-19T10:26:59Z</time>
      </trkpt>
      <trkpt lat="43.6378" lon="3.74936">
        <ele>159.6</ele>
        <time>2022-03-19T10:27:09Z</time>
      </trkpt>
      <trkpt lat="43.63734" lon="3.74934">
        <ele>161</ele>
        <time>2022-03-19T10:27:19Z</time>
      </trkpt>
      <trkpt lat="43.63696" lon="3.74931">
        <ele>163.4</ele>
        <time>2022-03-19T10:27:29Z</time>
      </trkpt>
      <trkpt lat="43.63658" lon="3.74926">
        <ele>163.3</ele>
        <time>2022-03-19T10:27:39Z</time>
      </trkpt>
      <trkpt lat="43.63614" lon="3.74922">
        <ele>163.8</ele>
        <time>2022-03-19T10:27:49Z</time>
      </trkpt>
      <trkpt lat="43.63567" lon="3.74897">
        <ele>162.9</ele>
        <time>2022-03-19T10:27:59Z</time>
      </trkpt>
      <trkpt lat="43.6352" lon="3.74866">
        <ele>161.2</ele>
        <time>2022-03-19T10:28:09Z</time>
      </trkpt>
      <trkpt lat="43.63462" lon="3.74827">
        <ele>159</ele>
        <time>2022-03-19T10:28:19Z</time>
      </trkpt>
      <trkpt lat="43.63407" lon="3.7479">
        <ele>158.1</ele>
        <time>2022-03-19T10:28:29Z</time>
      </trkpt>
      <trkpt lat="43.63359" lon="3.74759">
        <ele>157.6</ele>
        <time>2022-03-19T10:28:39Z</time>
      </trkpt>
      <trkpt lat="43.63313" lon="3.7473">
        <ele>154.7</ele>
        <time>2022-03-19T10:28:49Z</time>
      </trkpt>
      <trkpt lat="43.63271" lon="3.74703">
        <ele>153.1</ele>
        <time>2022-03-19T10:28:59Z</time>
      </trkpt>
      <trkpt lat="43.63226" lon="3.74674">
        <ele>154.2</ele>
        <time>2022-03-19T10:29:09Z</time>
      </trkpt>
      <trkpt lat="43.63199" lon="3.74656">
        <ele>151.6</ele>
        <time>2022-03-19T10:31:49Z</time>
      </trkpt>
      <trkpt lat="43.63142" lon="3.7462">
        <ele>146.5</ele>
        <time>2022-03-19T10:32:09Z</time>
      </trkpt>
      <trkpt lat="43.63042" lon="3.74594">
        <ele>137.3</ele>
        <time>2022-03-19T10:32:19Z</time>
      </trkpt>
      <trkpt lat="43.62944" lon="3.74604">
        <ele>128.7</ele>
        <time>2022-03-19T10:32:29Z</time>
      </trkpt>
      <trkpt lat="43.62896" lon="3.74514">
        <ele>126</ele>
        <time>2022-03-19T10:32:39Z</time>
      </trkpt>
      <trkpt lat="43.62882" lon="3.74405">
        <ele>126.3</ele>
        <time>2022-03-19T10:32:49Z</time>
      </trkpt>
      <trkpt lat="43.62854" lon="3.74314">
        <ele>125.5</ele>
        <time>2022-03-19T10:32:59Z</time>
      </trkpt>
      <trkpt lat="43.62826" lon="3.74238">
        <ele>125.3</ele>
        <time>2022-03-19T10:33:09Z</time>
      </trkpt>
      <trkpt lat="43.62806" lon="3.74147">
        <ele>121.4</ele>
        <time>2022-03-19T10:33:19Z</time>
      </trkpt>
      <trkpt lat="43.62787" lon="3.74051">
        <ele>119.8</ele>
        <time>2022-03-19T10:33:29Z</time>
      </trkpt>
      <trkpt lat="43.62769" lon="3.73964">
        <ele>120.3</ele>
        <time>2022-03-19T10:33:39Z</time>
      </trkpt>
      <trkpt lat="43.6275" lon="3.73888">
        <ele>120.1</ele>
        <time>2022-03-19T10:33:49Z</time>
      </trkpt>
      <trkpt lat="43.62695" lon="3.73855">
        <ele>117.2</ele>
        <time>2022-03-19T10:33:59Z</time>
      </trkpt>
      <trkpt lat="43.62628" lon="3.73879">
        <ele>117.1</ele>
        <time>2022-03-19T10:34:09Z</time>
      </trkpt>
      <trkpt lat="43.62567" lon="3.739">
        <ele>118.2</ele>
        <time>2022-03-19T10:34:19Z</time>
      </trkpt>
      <trkpt lat="43.6251" lon="3.73921">
        <ele>116.6</ele>
        <time>2022-03-19T10:34:29Z</time>
      </trkpt>
      <trkpt lat="43.62453" lon="3.7385">
        <ele>110.2</ele>
        <time>2022-03-19T10:34:39Z</time>
      </trkpt>
      <trkpt lat="43.62415" lon="3.73897">
        <ele>112.5</ele>
        <time>2022-03-19T10:34:49Z</time>
      </trkpt>
      <trkpt lat="43.62407" lon="3.73962">
        <ele>110.1</ele>
        <time>2022-03-19T10:34:59Z</time>
      </trkpt>
      <trkpt lat="43.62402" lon="3.74026">
        <ele>110</ele>
        <time>2022-03-19T10:35:09Z</time>
      </trkpt>
      <trkpt lat="43.62395" lon="3.74096">
        <ele>111.8</ele>
        <time>2022-03-19T10:35:19Z</time>
      </trkpt>
      <trkpt lat="43.62381" lon="3.74162">
        <ele>112.9</ele>
        <time>2022-03-19T10:35:29Z</time>
      </trkpt>
      <trkpt lat="43.62362" lon="3.74221">
        <ele>112.1</ele>
        <time>2022-03-19T10:35:39Z</time>
      </trkpt>
      <trkpt lat="43.62338" lon="3.74269">
        <ele>112.6</ele>
        <time>2022-03-19T10:35:49Z</time>
      </trkpt>
      <trkpt lat="43.62306" lon="3.74313">
        <ele>110.4</ele>
        <time>2022-03-19T10:35:59Z</time>
      </trkpt>
      <trkpt lat="43.62267" lon="3.74356">
        <ele>107.4</ele>
        <time>2022-03-19T10:36:09Z</time>
      </trkpt>
      <trkpt lat="43.62226" lon="3.74402">
        <ele>107</ele>
        <time>2022-03-19T10:36:19Z</time>
      </trkpt>
      <trkpt lat="43.6219" lon="3.74455">
        <ele>109.5</ele>
        <time>2022-03-19T10:36:29Z</time>
      </trkpt>
      <trkpt lat="43.62161" lon="3.74515">
        <ele>108.9</ele>
        <time>2022-03-19T10:36:39Z</time>
      </trkpt>
      <trkpt lat="43.62145" lon="3.7458">
        <ele>109.3</ele>
        <time>2022-03-19T10:36:49Z</time>
      </trkpt>
      <trkpt lat="43.62133" lon="3.74644">
        <ele>109.1</ele>
        <time>2022-03-19T10:36:59Z</time>
      </trkpt>
      <trkpt lat="43.62123" lon="3.74706">
        <ele>109.6</ele>
        <time>2022-03-19T10:37:09Z</time>
      </trkpt>
      <trkpt lat="43.62107" lon="3.74738">
        <ele>106.7</ele>
        <time>2022-03-19T10:37:19Z</time>
      </trkpt>
      <trkpt lat="43.62074" lon="3.747">
        <ele>101.6</ele>
        <time>2022-03-19T10:37:29Z</time>
      </trkpt>
      <trkpt lat="43.62046" lon="3.74691">
        <ele>104.3</ele>
        <time>2022-03-19T10:37:39Z</time>
      </trkpt>
      <trkpt lat="43.62031" lon="3.7468">
        <ele>106.7</ele>
        <time>2022-03-19T10:37:49Z</time>
      </trkpt>
      <trkpt lat="43.62014" lon="3.74679">
        <ele>107.8</ele>
        <time>2022-03-19T10:37:59Z</time>
      </trkpt>
      <trkpt lat="43.61997" lon="3.74677">
        <ele>108.7</ele>
        <time>2022-03-19T10:38:09Z</time>
      </trkpt>
      <trkpt lat="43.61985" lon="3.74665">
        <ele>109.6</ele>
        <time>2022-03-19T10:38:19Z</time>
      </trkpt>
      <trkpt lat="43.61981" lon="3.74648">
        <ele>110.8</ele>
        <time>2022-03-19T10:38:29Z</time>
      </trkpt>
      <trkpt lat="43.61971" lon="3.74641">
        <ele>111.9</ele>
        <time>2022-03-19T10:38:39Z</time>
      </trkpt>
      <trkpt lat="43.61958" lon="3.74641">
        <ele>112.9</ele>
        <time>2022-03-19T10:38:49Z</time>
      </trkpt>
      <trkpt lat="43.61945" lon="3.74634">
        <ele>114.3</ele>
        <time>2022-03-19T10:38:59Z</time>
      </trkpt>
      <trkpt lat="43.6193" lon="3.74629">
        <ele>115.6</ele>
        <time>2022-03-19T10:39:09Z</time>
      </trkpt>
      <trkpt lat="43.61913" lon="3.74626">
        <ele>116.5</ele>
        <time>2022-03-19T10:39:19Z</time>
      </trkpt>
      <trkpt lat="43.61892" lon="3.74626">
        <ele>116.5</ele>
        <time>2022-03-19T10:39:29Z</time>
      </trkpt>
      <trkpt lat="43.61869" lon="3.74629">
        <ele>115.6</ele>
        <time>2022-03-19T10:39:39Z</time>
      </trkpt>
      <trkpt lat="43.61847" lon="3.74613">
        <ele>115.4</ele>
        <time>2022-03-19T10:39:49Z</time>
      </trkpt>
      <trkpt lat="43.61828" lon="3.74627">
        <ele>113.4</ele>
        <time>2022-03-19T10:39:59Z</time>
      </trkpt>
      <trkpt lat="43.61801" lon="3.74628">
        <ele>113.8</ele>
        <time>2022-03-19T10:40:09Z</time>
      </trkpt>
      <trkpt lat="43.61766" lon="3.7464">
        <ele>112.8</ele>
        <time>2022-03-19T10:40:19Z</time>
      </trkpt>
      <trkpt lat="43.61732" lon="3.7462">
        <ele>113.8</ele>
        <time>2022-03-19T10:40:29Z</time>
      </trkpt>
      <trkpt lat="43.617" lon="3.74592">
        <ele>112.8</ele>
        <time>2022-03-19T10:40:39Z</time>
      </trkpt>
      <trkpt lat="43.61659" lon="3.74554">
        <ele>108.5</ele>
        <time>2022-03-19T10:40:49Z</time>
      </trkpt>
      <trkpt lat="43.61633" lon="3.74538">
        <ele>104.6</ele>
        <time>2022-03-19T10:40:59Z</time>
      </trkpt>
      <trkpt lat="43.61611" lon="3.74531">
        <ele>104.1</ele>
        <time>2022-03-19T10:41:09Z</time>
      </trkpt>
      <trkpt lat="43.61593" lon="3.74521">
        <ele>105.2</ele>
        <time>2022-03-19T10:41:19Z</time>
      </trkpt>
      <trkpt lat="43.61575" lon="3.74511">
        <ele>107.4</ele>
        <time>2022-03-19T10:41:29Z</time>
      </trkpt>
      <trkpt lat="43.61559" lon="3.74501">
        <ele>109.5</ele>
        <time>2022-03-19T10:41:39Z</time>
      </trkpt>
      <trkpt lat="43.61543" lon="3.74491">
        <ele>111.2</ele>
        <time>2022-03-19T10:41:49Z</time>
      </trkpt>
      <trkpt lat="43.61523" lon="3.74487">
        <ele>113.2</ele>
        <time>2022-03-19T10:41:59Z</time>
      </trkpt>
      <trkpt lat="43.61499" lon="3.74479">
        <ele>113</ele>
        <time>2022-03-19T10:42:09Z</time>
      </trkpt>
      <trkpt lat="43.61469" lon="3.74469">
        <ele>113.6</ele>
        <time>2022-03-19T10:42:19Z</time>
      </trkpt>
      <trkpt lat="43.61435" lon="3.74446">
        <ele>112.8</ele>
        <time>2022-03-19T10:42:29Z</time>
      </trkpt>
      <trkpt lat="43.61412" lon="3.74417">
        <ele>114.3</ele>
        <time>2022-03-19T10:42:39Z</time>
      </trkpt>
      <trkpt lat="43.61394" lon="3.74391">
        <ele>116.6</ele>
        <time>2022-03-19T10:42:49Z</time>
      </trkpt>
      <trkpt lat="43.61379" lon="3.74366">
        <ele>118.2</ele>
        <time>2022-03-19T10:42:59Z</time>
      </trkpt>
      <trkpt lat="43.61364" lon="3.74344">
        <ele>120.1</ele>
        <time>2022-03-19T10:43:09Z</time>
      </trkpt>
      <trkpt lat="43.61351" lon="3.74319">
        <ele>121.7</ele>
        <time>2022-03-19T10:43:19Z</time>
      </trkpt>
      <trkpt lat="43.61331" lon="3.74303">
        <ele>123</ele>
        <time>2022-03-19T10:43:29Z</time>
      </trkpt>
      <trkpt lat="43.6131" lon="3.74286">
        <ele>123.7</ele>
        <time>2022-03-19T10:43:39Z</time>
      </trkpt>
      <trkpt lat="43.6129" lon="3.74273">
        <ele>125.1</ele>
        <time>2022-03-19T10:43:49Z</time>
      </trkpt>
      <trkpt lat="43.6127" lon="3.74256">
        <ele>126.3</ele>
        <time>2022-03-19T10:43:59Z</time>
      </trkpt>
      <trkpt lat="43.61249" lon="3.74238">
        <ele>126.6</ele>
        <time>2022-03-19T10:44:09Z</time>
      </trkpt>
      <trkpt lat="43.61228" lon="3.7422">
        <ele>128.3</ele>
        <time>2022-03-19T10:44:19Z</time>
      </trkpt>
      <trkpt lat="43.61206" lon="3.74201">
        <ele>129.9</ele>
        <time>2022-03-19T10:44:29Z</time>
      </trkpt>
      <trkpt lat="43.61186" lon="3.74183">
        <ele>131.1</ele>
        <time>2022-03-19T10:44:39Z</time>
      </trkpt>
      <trkpt lat="43.61169" lon="3.74159">
        <ele>132.7</ele>
        <time>2022-03-19T10:44:49Z</time>
      </trkpt>
      <trkpt lat="43.61157" lon="3.74126">
        <ele>133.4</ele>
        <time>2022-03-19T10:44:59Z</time>
      </trkpt>
      <trkpt lat="43.6114" lon="3.74087">
        <ele>134</ele>
        <time>2022-03-19T10:45:09Z</time>
      </trkpt>
      <trkpt lat="43.61121" lon="3.74044">
        <ele>134.9</ele>
        <time>2022-03-19T10:45:19Z</time>
      </trkpt>
      <trkpt lat="43.61102" lon="3.73999">
        <ele>136</ele>
        <time>2022-03-19T10:45:29Z</time>
      </trkpt>
      <trkpt lat="43.61083" lon="3.73958">
        <ele>138.5</ele>
        <time>2022-03-19T10:45:39Z</time>
      </trkpt>
      <trkpt lat="43.61071" lon="3.73918">
        <ele>139.5</ele>
        <time>2022-03-19T10:45:49Z</time>
      </trkpt>
      <trkpt lat="43.6106" lon="3.73883">
        <ele>141.5</ele>
        <time>2022-03-19T10:45:59Z</time>
      </trkpt>
      <trkpt lat="43.61044" lon="3.73848">
        <ele>142.2</ele>
        <time>2022-03-19T10:46:09Z</time>
      </trkpt>
      <trkpt lat="43.61018" lon="3.73816">
        <ele>142.3</ele>
        <time>2022-03-19T10:46:19Z</time>
      </trkpt>
      <trkpt lat="43.60981" lon="3.73828">
        <ele>142.4</ele>
        <time>2022-03-19T10:46:29Z</time>
      </trkpt>
      <trkpt lat="43.60952" lon="3.73861">
        <ele>143.2</ele>
        <time>2022-03-19T10:46:39Z</time>
      </trkpt>
      <trkpt lat="43.60922" lon="3.73854">
        <ele>144.5</ele>
        <time>2022-03-19T10:46:49Z</time>
      </trkpt>
      <trkpt lat="43.60894" lon="3.73834">
        <ele>144.3</ele>
        <time>2022-03-19T10:46:59Z</time>
      </trkpt>
      <trkpt lat="43.60874" lon="3.73837">
        <ele>143.3</ele>
        <time>2022-03-19T10:47:09Z</time>
      </trkpt>
      <trkpt lat="43.6087" lon="3.73887">
        <ele>140.5</ele>
        <time>2022-03-19T10:47:19Z</time>
      </trkpt>
      <trkpt lat="43.60871" lon="3.73985">
        <ele>134.5</ele>
        <time>2022-03-19T10:47:29Z</time>
      </trkpt>
      <trkpt lat="43.60826" lon="3.74079">
        <ele>129.1</ele>
        <time>2022-03-19T10:47:39Z</time>
      </trkpt>
      <trkpt lat="43.6076" lon="3.74136">
        <ele>128.1</ele>
        <time>2022-03-19T10:47:49Z</time>
      </trkpt>
      <trkpt lat="43.60717" lon="3.74204">
        <ele>125.5</ele>
        <time>2022-03-19T10:47:59Z</time>
      </trkpt>
      <trkpt lat="43.60692" lon="3.74295">
        <ele>122.3</ele>
        <time>2022-03-19T10:48:09Z</time>
      </trkpt>
      <trkpt lat="43.6067" lon="3.74396">
        <ele>118</ele>
        <time>2022-03-19T10:48:19Z</time>
      </trkpt>
      <trkpt lat="43.60648" lon="3.74483">
        <ele>117.7</ele>
        <time>2022-03-19T10:48:29Z</time>
      </trkpt>
      <trkpt lat="43.60631" lon="3.74559">
        <ele>115.2</ele>
        <time>2022-03-19T10:48:39Z</time>
      </trkpt>
      <trkpt lat="43.60608" lon="3.74627">
        <ele>114.8</ele>
        <time>2022-03-19T10:48:49Z</time>
      </trkpt>
      <trkpt lat="43.60593" lon="3.74691">
        <ele>113.3</ele>
        <time>2022-03-19T10:48:59Z</time>
      </trkpt>
      <trkpt lat="43.60592" lon="3.7475">
        <ele>112.3</ele>
        <time>2022-03-19T10:49:09Z</time>
      </trkpt>
      <trkpt lat="43.60585" lon="3.74804">
        <ele>110.9</ele>
        <time>2022-03-19T10:49:19Z</time>
      </trkpt>
      <trkpt lat="43.60569" lon="3.74855">
        <ele>108.3</ele>
        <time>2022-03-19T10:49:29Z</time>
      </trkpt>
      <trkpt lat="43.60552" lon="3.74923">
        <ele>105.3</ele>
        <time>2022-03-19T10:49:39Z</time>
      </trkpt>
      <trkpt lat="43.60515" lon="3.74987">
        <ele>102.5</ele>
        <time>2022-03-19T10:49:49Z</time>
      </trkpt>
      <trkpt lat="43.60473" lon="3.75024">
        <ele>101.1</ele>
        <time>2022-03-19T10:49:59Z</time>
      </trkpt>
      <trkpt lat="43.60452" lon="3.75042">
        <ele>101</ele>
        <time>2022-03-19T10:50:09Z</time>
      </trkpt>
      <trkpt lat="43.60427" lon="3.75085">
        <ele>101.3</ele>
        <time>2022-03-19T10:50:19Z</time>
      </trkpt>
      <trkpt lat="43.60394" lon="3.75131">
        <ele>101.4</ele>
        <time>2022-03-19T10:50:29Z</time>
      </trkpt>
      <trkpt lat="43.60357" lon="3.75182">
        <ele>101.8</ele>
        <time>2022-03-19T10:50:39Z</time>
      </trkpt>
      <trkpt lat="43.6032" lon="3.75233">
        <ele>101.4</ele>
        <time>2022-03-19T10:50:49Z</time>
      </trkpt>
      <trkpt lat="43.60288" lon="3.75282">
        <ele>101.5</ele>
        <time>2022-03-19T10:50:59Z</time>
      </trkpt>
      <trkpt lat="43.60257" lon="3.75318">
        <ele>102</ele>
        <time>2022-03-19T10:51:09Z</time>
      </trkpt>
      <trkpt lat="43.60236" lon="3.75339">
        <ele>102.9</ele>
        <time>2022-03-19T10:51:19Z</time>
      </trkpt>
      <trkpt lat="43.60213" lon="3.75364">
        <ele>105.1</ele>
        <time>2022-03-19T10:51:29Z</time>
      </trkpt>
      <trkpt lat="43.60191" lon="3.75393">
        <ele>107.5</ele>
        <time>2022-03-19T10:51:39Z</time>
      </trkpt>
      <trkpt lat="43.60171" lon="3.75416">
        <ele>110.6</ele>
        <time>2022-03-19T10:51:49Z</time>
      </trkpt>
      <trkpt lat="43.6015" lon="3.75437">
        <ele>111.2</ele>
        <time>2022-03-19T10:51:59Z</time>
      </trkpt>
      <trkpt lat="43.6013" lon="3.75456">
        <ele>110.6</ele>
        <time>2022-03-19T10:52:09Z</time>
      </trkpt>
      <trkpt lat="43.60101" lon="3.75491">
        <ele>109.4</ele>
        <time>2022-03-19T10:52:19Z</time>
      </trkpt>
      <trkpt lat="43.60066" lon="3.75527">
        <ele>110.2</ele>
        <time>2022-03-19T10:52:29Z</time>
      </trkpt>
      <trkpt lat="43.60034" lon="3.75563">
        <ele>111.4</ele>
        <time>2022-03-19T10:52:39Z</time>
      </trkpt>
      <trkpt lat="43.60008" lon="3.75603">
        <ele>112.9</ele>
        <time>2022-03-19T10:52:49Z</time>
      </trkpt>
      <trkpt lat="43.59988" lon="3.75639">
        <ele>113.7</ele>
        <time>2022-03-19T10:52:59Z</time>
      </trkpt>
      <trkpt lat="43.59967" lon="3.75664">
        <ele>114.5</ele>
        <time>2022-03-19T10:53:09Z</time>
      </trkpt>
      <trkpt lat="43.5994" lon="3.75698">
        <ele>115.8</ele>
        <time>2022-03-19T10:53:19Z</time>
      </trkpt>
      <trkpt lat="43.59901" lon="3.75736">
        <ele>112.6</ele>
        <time>2022-03-19T10:53:29Z</time>
      </trkpt>
      <trkpt lat="43.59854" lon="3.7581">
        <ele>108.6</ele>
        <time>2022-03-19T10:53:39Z</time>
      </trkpt>
      <trkpt lat="43.59802" lon="3.75878">
        <ele>106.8</ele>
        <time>2022-03-19T10:53:49Z</time>
      </trkpt>
      <trkpt lat="43.59761" lon="3.75898">
        <ele>106.6</ele>
        <time>2022-03-19T10:53:59Z</time>
      </trkpt>
      <trkpt lat="43.59702" lon="3.75936">
        <ele>103.5</ele>
        <time>2022-03-19T10:54:09Z</time>
      </trkpt>
      <trkpt lat="43.59642" lon="3.75977">
        <ele>100.1</ele>
        <time>2022-03-19T10:54:19Z</time>
      </trkpt>
      <trkpt lat="43.59602" lon="3.76046">
        <ele>98.4</ele>
        <time>2022-03-19T10:54:29Z</time>
      </trkpt>
      <trkpt lat="43.59567" lon="3.76108">
        <ele>98.5</ele>
        <time>2022-03-19T10:54:39Z</time>
      </trkpt>
      <trkpt lat="43.59539" lon="3.76183">
        <ele>97.2</ele>
        <time>2022-03-19T10:54:49Z</time>
      </trkpt>
      <trkpt lat="43.59506" lon="3.76246">
        <ele>97.3</ele>
        <time>2022-03-19T10:54:59Z</time>
      </trkpt>
      <trkpt lat="43.59467" lon="3.76304">
        <ele>95.3</ele>
        <time>2022-03-19T10:55:09Z</time>
      </trkpt>
      <trkpt lat="43.59426" lon="3.7638">
        <ele>89.8</ele>
        <time>2022-03-19T10:55:19Z</time>
      </trkpt>
      <trkpt lat="43.59374" lon="3.76485">
        <ele>83.5</ele>
        <time>2022-03-19T10:55:29Z</time>
      </trkpt>
      <trkpt lat="43.59337" lon="3.76597">
        <ele>77.7</ele>
        <time>2022-03-19T10:55:39Z</time>
      </trkpt>
      <trkpt lat="43.59277" lon="3.76683">
        <ele>71.5</ele>
        <time>2022-03-19T10:55:49Z</time>
      </trkpt>
      <trkpt lat="43.59226" lon="3.76758">
        <ele>65.4</ele>
        <time>2022-03-19T10:55:59Z</time>
      </trkpt>
      <trkpt lat="43.59186" lon="3.76808">
        <ele>61.2</ele>
        <time>2022-03-19T10:56:09Z</time>
      </trkpt>
      <trkpt lat="43.59196" lon="3.76854">
        <ele>61.7</ele>
        <time>2022-03-19T10:57:19Z</time>
      </trkpt>
      <trkpt lat="43.5923" lon="3.76881">
        <ele>63</ele>
        <time>2022-03-19T10:57:39Z</time>
      </trkpt>
      <trkpt lat="43.59269" lon="3.76904">
        <ele>64.5</ele>
        <time>2022-03-19T10:57:49Z</time>
      </trkpt>
      <trkpt lat="43.59303" lon="3.76916">
        <ele>65.8</ele>
        <time>2022-03-19T10:57:59Z</time>
      </trkpt>
      <trkpt lat="43.5933" lon="3.76938">
        <ele>67</ele>
        <time>2022-03-19T10:58:09Z</time>
      </trkpt>
      <trkpt lat="43.59355" lon="3.76963">
        <ele>68.2</ele>
        <time>2022-03-19T10:58:19Z</time>
      </trkpt>
      <trkpt lat="43.59386" lon="3.76985">
        <ele>68.9</ele>
        <time>2022-03-19T10:58:29Z</time>
      </trkpt>
      <trkpt lat="43.59419" lon="3.77001">
        <ele>69.1</ele>
        <time>2022-03-19T10:58:39Z</time>
      </trkpt>
      <trkpt lat="43.59453" lon="3.77022">
        <ele>68.9</ele>
        <time>2022-03-19T10:58:49Z</time>
      </trkpt>
      <trkpt lat="43.59504" lon="3.77055">
        <ele>66.2</ele>
        <time>2022-03-19T10:58:59Z</time>
      </trkpt>
      <trkpt lat="43.59563" lon="3.7708">
        <ele>65.4</ele>
        <time>2022-03-19T10:59:09Z</time>
      </trkpt>
      <trkpt lat="43.5962" lon="3.7711">
        <ele>64.4</ele>
        <time>2022-03-19T10:59:19Z</time>
      </trkpt>
      <trkpt lat="43.59676" lon="3.77142">
        <ele>63.5</ele>
        <time>2022-03-19T10:59:29Z</time>
      </trkpt>
      <trkpt lat="43.59725" lon="3.77175">
        <ele>62.7</ele>
        <time>2022-03-19T10:59:39Z</time>
      </trkpt>
      <trkpt lat="43.59764" lon="3.77216">
        <ele>62.6</ele>
        <time>2022-03-19T10:59:49Z</time>
      </trkpt>
      <trkpt lat="43.59802" lon="3.77251">
        <ele>62.9</ele>
        <time>2022-03-19T10:59:59Z</time>
      </trkpt>
      <trkpt lat="43.59839" lon="3.7728">
        <ele>64.2</ele>
        <time>2022-03-19T11:00:09Z</time>
      </trkpt>
      <trkpt lat="43.59867" lon="3.77311">
        <ele>66.2</ele>
        <time>2022-03-19T11:00:19Z</time>
      </trkpt>
      <trkpt lat="43.59889" lon="3.77343">
        <ele>66.7</ele>
        <time>2022-03-19T11:00:29Z</time>
      </trkpt>
      <trkpt lat="43.59914" lon="3.77377">
        <ele>67.3</ele>
        <time>2022-03-19T11:00:39Z</time>
      </trkpt>
      <trkpt lat="43.59942" lon="3.77411">
        <ele>67.2</ele>
        <time>2022-03-19T11:00:49Z</time>
      </trkpt>
      <trkpt lat="43.59977" lon="3.77441">
        <ele>66.2</ele>
        <time>2022-03-19T11:00:59Z</time>
      </trkpt>
      <trkpt lat="43.60024" lon="3.77484">
        <ele>63.2</ele>
        <time>2022-03-19T11:01:09Z</time>
      </trkpt>
      <trkpt lat="43.60066" lon="3.77517">
        <ele>61.4</ele>
        <time>2022-03-19T11:01:19Z</time>
      </trkpt>
      <trkpt lat="43.60101" lon="3.77583">
        <ele>57.7</ele>
        <time>2022-03-19T11:01:29Z</time>
      </trkpt>
      <trkpt lat="43.6016" lon="3.77644">
        <ele>54.7</ele>
        <time>2022-03-19T11:01:39Z</time>
      </trkpt>
      <trkpt lat="43.60226" lon="3.77685">
        <ele>52.3</ele>
        <time>2022-03-19T11:01:49Z</time>
      </trkpt>
      <trkpt lat="43.6029" lon="3.77717">
        <ele>51.2</ele>
        <time>2022-03-19T11:01:59Z</time>
      </trkpt>
      <trkpt lat="43.60355" lon="3.77747">
        <ele>50</ele>
        <time>2022-03-19T11:02:09Z</time>
      </trkpt>
      <trkpt lat="43.60394" lon="3.77773">
        <ele>53.2</ele>
        <time>2022-03-19T11:02:19Z</time>
      </trkpt>
      <trkpt lat="43.60417" lon="3.77803">
        <ele>55</ele>
        <time>2022-03-19T11:02:29Z</time>
      </trkpt>
      <trkpt lat="43.60438" lon="3.77833">
        <ele>57</ele>
        <time>2022-03-19T11:02:39Z</time>
      </trkpt>
      <trkpt lat="43.60458" lon="3.77862">
        <ele>58.5</ele>
        <time>2022-03-19T11:02:49Z</time>
      </trkpt>
      <trkpt lat="43.60477" lon="3.77893">
        <ele>58.3</ele>
        <time>2022-03-19T11:02:59Z</time>
      </trkpt>
      <trkpt lat="43.60496" lon="3.77927">
        <ele>59.1</ele>
        <time>2022-03-19T11:03:09Z</time>
      </trkpt>
      <trkpt lat="43.60524" lon="3.7796">
        <ele>58.7</ele>
        <time>2022-03-19T11:03:19Z</time>
      </trkpt>
      <trkpt lat="43.60555" lon="3.77994">
        <ele>58.2</ele>
        <time>2022-03-19T11:03:29Z</time>
      </trkpt>
      <trkpt lat="43.60556" lon="3.7804">
        <ele>57.6</ele>
        <time>2022-03-19T11:03:39Z</time>
      </trkpt>
      <trkpt lat="43.60566" lon="3.78096">
        <ele>58.5</ele>
        <time>2022-03-19T11:03:49Z</time>
      </trkpt>
      <trkpt lat="43.6058" lon="3.78155">
        <ele>58.2</ele>
        <time>2022-03-19T11:03:59Z</time>
      </trkpt>
      <trkpt lat="43.60597" lon="3.78212">
        <ele>59.3</ele>
        <time>2022-03-19T11:04:09Z</time>
      </trkpt>
      <trkpt lat="43.60616" lon="3.78266">
        <ele>59.8</ele>
        <time>2022-03-19T11:04:19Z</time>
      </trkpt>
      <trkpt lat="43.6064" lon="3.78315">
        <ele>60.1</ele>
        <time>2022-03-19T11:04:29Z</time>
      </trkpt>
      <trkpt lat="43.60649" lon="3.78357">
        <ele>60.9</ele>
        <time>2022-03-19T11:04:39Z</time>
      </trkpt>
      <trkpt lat="43.60663" lon="3.7839">
        <ele>62</ele>
        <time>2022-03-19T11:04:49Z</time>
      </trkpt>
      <trkpt lat="43.60691" lon="3.78431">
        <ele>62.5</ele>
        <time>2022-03-19T11:04:59Z</time>
      </trkpt>
      <trkpt lat="43.60711" lon="3.78472">
        <ele>63</ele>
        <time>2022-03-19T11:05:09Z</time>
      </trkpt>
      <trkpt lat="43.60729" lon="3.78512">
        <ele>63.2</ele>
        <time>2022-03-19T11:05:19Z</time>
      </trkpt>
      <trkpt lat="43.60748" lon="3.78548">
        <ele>64</ele>
        <time>2022-03-19T11:05:29Z</time>
      </trkpt>
      <trkpt lat="43.60766" lon="3.78588">
        <ele>64.6</ele>
        <time>2022-03-19T11:05:39Z</time>
      </trkpt>
      <trkpt lat="43.60784" lon="3.7863">
        <ele>65.2</ele>
        <time>2022-03-19T11:05:49Z</time>
      </trkpt>
      <trkpt lat="43.60801" lon="3.78666">
        <ele>66.8</ele>
        <time>2022-03-19T11:05:59Z</time>
      </trkpt>
      <trkpt lat="43.60817" lon="3.78701">
        <ele>66.5</ele>
        <time>2022-03-19T11:06:09Z</time>
      </trkpt>
      <trkpt lat="43.60832" lon="3.78737">
        <ele>68.4</ele>
        <time>2022-03-19T11:06:19Z</time>
      </trkpt>
      <trkpt lat="43.60843" lon="3.78764">
        <ele>69.5</ele>
        <time>2022-03-19T11:06:29Z</time>
      </trkpt>
      <trkpt lat="43.60852" lon="3.78789">
        <ele>72.1</ele>
        <time>2022-03-19T11:06:39Z</time>
      </trkpt>
      <trkpt lat="43.60864" lon="3.78814">
        <ele>74.8</ele>
        <time>2022-03-19T11:06:49Z</time>
      </trkpt>
      <trkpt lat="43.60874" lon="3.78841">
        <ele>76.7</ele>
        <time>2022-03-19T11:06:59Z</time>
      </trkpt>
      <trkpt lat="43.6088" lon="3.78869">
        <ele>78</ele>
        <time>2022-03-19T11:07:09Z</time>
      </trkpt>
      <trkpt lat="43.60885" lon="3.78906">
        <ele>78.9</ele>
        <time>2022-03-19T11:07:19Z</time>
      </trkpt>
      <trkpt lat="43.60879" lon="3.78943">
        <ele>79.6</ele>
        <time>2022-03-19T11:07:29Z</time>
      </trkpt>
      <trkpt lat="43.60871" lon="3.78982">
        <ele>80.4</ele>
        <time>2022-03-19T11:07:39Z</time>
      </trkpt>
      <trkpt lat="43.6086" lon="3.79037">
        <ele>78.7</ele>
        <time>2022-03-19T11:07:49Z</time>
      </trkpt>
      <trkpt lat="43.60846" lon="3.79125">
        <ele>76.6</ele>
        <time>2022-03-19T11:07:59Z</time>
      </trkpt>
      <trkpt lat="43.60836" lon="3.79234">
        <ele>69.6</ele>
        <time>2022-03-19T11:08:09Z</time>
      </trkpt>
      <trkpt lat="43.60838" lon="3.79363">
        <ele>66</ele>
        <time>2022-03-19T11:08:19Z</time>
      </trkpt>
      <trkpt lat="43.60852" lon="3.79497">
        <ele>60.5</ele>
        <time>2022-03-19T11:08:29Z</time>
      </trkpt>
      <trkpt lat="43.60873" lon="3.79615">
        <ele>56.9</ele>
        <time>2022-03-19T11:08:39Z</time>
      </trkpt>
      <trkpt lat="43.60896" lon="3.79726">
        <ele>53.8</ele>
        <time>2022-03-19T11:08:49Z</time>
      </trkpt>
      <trkpt lat="43.60921" lon="3.79831">
        <ele>50.9</ele>
        <time>2022-03-19T11:08:59Z</time>
      </trkpt>
      <trkpt lat="43.60946" lon="3.7993">
        <ele>48.2</ele>
        <time>2022-03-19T11:09:09Z</time>
      </trkpt>
      <trkpt lat="43.60965" lon="3.80033">
        <ele>47</ele>
        <time>2022-03-19T11:09:19Z</time>
      </trkpt>
      <trkpt lat="43.60984" lon="3.80121">
        <ele>47.5</ele>
        <time>2022-03-19T11:09:29Z</time>
      </trkpt>
      <trkpt lat="43.60999" lon="3.80195">
        <ele>48</ele>
        <time>2022-03-19T11:09:39Z</time>
      </trkpt>
      <trkpt lat="43.61011" lon="3.8026">
        <ele>48.8</ele>
        <time>2022-03-19T11:09:49Z</time>
      </trkpt>
      <trkpt lat="43.61025" lon="3.80314">
        <ele>49.6</ele>
        <time>2022-03-19T11:09:59Z</time>
      </trkpt>
      <trkpt lat="43.6104" lon="3.80358">
        <ele>46.3</ele>
        <time>2022-03-19T11:10:09Z</time>
      </trkpt>
      <trkpt lat="43.61057" lon="3.80406">
        <ele>51</ele>
        <time>2022-03-19T11:10:19Z</time>
      </trkpt>
      <trkpt lat="43.61077" lon="3.80456">
        <ele>50.2</ele>
        <time>2022-03-19T11:10:29Z</time>
      </trkpt>
      <trkpt lat="43.61097" lon="3.80505">
        <ele>49.9</ele>
        <time>2022-03-19T11:10:39Z</time>
      </trkpt>
      <trkpt lat="43.61123" lon="3.8055">
        <ele>49.6</ele>
        <time>2022-03-19T11:10:49Z</time>
      </trkpt>
      <trkpt lat="43.61149" lon="3.806">
        <ele>50.1</ele>
        <time>2022-03-19T11:10:59Z</time>
      </trkpt>
      <trkpt lat="43.61174" lon="3.80649">
        <ele>49.3</ele>
        <time>2022-03-19T11:11:09Z</time>
      </trkpt>
      <trkpt lat="43.61198" lon="3.80701">
        <ele>49.1</ele>
        <time>2022-03-19T11:11:19Z</time>
      </trkpt>
      <trkpt lat="43.61221" lon="3.80754">
        <ele>49</ele>
        <time>2022-03-19T11:11:29Z</time>
      </trkpt>
      <trkpt lat="43.61235" lon="3.80806">
        <ele>48.9</ele>
        <time>2022-03-19T11:11:39Z</time>
      </trkpt>
      <trkpt lat="43.6126" lon="3.8086">
        <ele>49.4</ele>
        <time>2022-03-19T11:11:49Z</time>
      </trkpt>
      <trkpt lat="43.6128" lon="3.80916">
        <ele>49.1</ele>
        <time>2022-03-19T11:11:59Z</time>
      </trkpt>
      <trkpt lat="43.61294" lon="3.80971">
        <ele>48.6</ele>
        <time>2022-03-19T11:12:09Z</time>
      </trkpt>
      <trkpt lat="43.61306" lon="3.81027">
        <ele>47</ele>
        <time>2022-03-19T11:12:19Z</time>
      </trkpt>
      <trkpt lat="43.61318" lon="3.81085">
        <ele>46.8</ele>
        <time>2022-03-19T11:12:29Z</time>
      </trkpt>
      <trkpt lat="43.61337" lon="3.81147">
        <ele>45.8</ele>
        <time>2022-03-19T11:12:39Z</time>
      </trkpt>
      <trkpt lat="43.61363" lon="3.81212">
        <ele>45.4</ele>
        <time>2022-03-19T11:12:49Z</time>
      </trkpt>
      <trkpt lat="43.61386" lon="3.81275">
        <ele>44.9</ele>
        <time>2022-03-19T11:12:59Z</time>
      </trkpt>
      <trkpt lat="43.61401" lon="3.8134">
        <ele>43.3</ele>
        <time>2022-03-19T11:13:09Z</time>
      </trkpt>
      <trkpt lat="43.61408" lon="3.81418">
        <ele>41</ele>
        <time>2022-03-19T11:13:19Z</time>
      </trkpt>
      <trkpt lat="43.61411" lon="3.81497">
        <ele>39.8</ele>
        <time>2022-03-19T11:13:29Z</time>
      </trkpt>
      <trkpt lat="43.61411" lon="3.81561">
        <ele>37.6</ele>
        <time>2022-03-19T11:13:39Z</time>
      </trkpt>
      <trkpt lat="43.61445" lon="3.81553">
        <ele>38.1</ele>
        <time>2022-03-19T11:13:49Z</time>
      </trkpt>
      <trkpt lat="43.6147" lon="3.81566">
        <ele>37.9</ele>
        <time>2022-03-19T11:13:59Z</time>
      </trkpt>
      <trkpt lat="43.61486" lon="3.81626">
        <ele>36.5</ele>
        <time>2022-03-19T11:14:09Z</time>
      </trkpt>
      <trkpt lat="43.61507" lon="3.81637">
        <ele>37.5</ele>
        <time>2022-03-19T11:14:19Z</time>
      </trkpt>
      <trkpt lat="43.61521" lon="3.81687">
        <ele>33.5</ele>
        <time>2022-03-19T11:14:29Z</time>
      </trkpt>
      <trkpt lat="43.61535" lon="3.81739">
        <ele>35.1</ele>
        <time>2022-03-19T11:14:39Z</time>
      </trkpt>
      <trkpt lat="43.61552" lon="3.818">
        <ele>36.7</ele>
        <time>2022-03-19T11:14:49Z</time>
      </trkpt>
      <trkpt lat="43.61569" lon="3.81861">
        <ele>37</ele>
        <time>2022-03-19T11:14:59Z</time>
      </trkpt>
      <trkpt lat="43.61582" lon="3.81912">
        <ele>39</ele>
        <time>2022-03-19T11:15:09Z</time>
      </trkpt>
      <trkpt lat="43.61591" lon="3.81946">
        <ele>39.3</ele>
        <time>2022-03-19T11:15:19Z</time>
      </trkpt>
      <trkpt lat="43.61565" lon="3.81983">
        <ele>39.3</ele>
        <time>2022-03-19T11:15:29Z</time>
      </trkpt>
      <trkpt lat="43.61556" lon="3.82033">
        <ele>40.4</ele>
        <time>2022-03-19T11:15:39Z</time>
      </trkpt>
      <trkpt lat="43.61554" lon="3.82078">
        <ele>44.3</ele>
        <time>2022-03-19T11:15:49Z</time>
      </trkpt>
      <trkpt lat="43.61548" lon="3.82122">
        <ele>42</ele>
        <time>2022-03-19T11:15:59Z</time>
      </trkpt>
      <trkpt lat="43.61545" lon="3.82169">
        <ele>43.2</ele>
        <time>2022-03-19T11:16:09Z</time>
      </trkpt>
      <trkpt lat="43.61525" lon="3.82188">
        <ele>43.8</ele>
        <time>2022-03-19T11:16:19Z</time>
      </trkpt>
      <trkpt lat="43.61515" lon="3.82193">
        <ele>43.9</ele>
        <time>2022-03-19T11:16:29Z</time>
      </trkpt>
      <trkpt lat="43.61487" lon="3.82207">
        <ele>43.7</ele>
        <time>2022-03-19T11:16:39Z</time>
      </trkpt>
      <trkpt lat="43.61449" lon="3.82217">
        <ele>43.1</ele>
        <time>2022-03-19T11:16:49Z</time>
      </trkpt>
      <trkpt lat="43.61425" lon="3.82231">
        <ele>43.6</ele>
        <time>2022-03-19T11:16:59Z</time>
      </trkpt>
      <trkpt lat="43.61399" lon="3.82248">
        <ele>44.9</ele>
        <time>2022-03-19T11:17:09Z</time>
      </trkpt>
      <trkpt lat="43.61378" lon="3.82259">
        <ele>45.4</ele>
        <time>2022-03-19T11:17:19Z</time>
      </trkpt>
      <trkpt lat="43.61357" lon="3.82272">
        <ele>47.5</ele>
        <time>2022-03-19T11:17:29Z</time>
      </trkpt>
      <trkpt lat="43.61341" lon="3.82288">
        <ele>49.7</ele>
        <time>2022-03-19T11:17:39Z</time>
      </trkpt>
      <trkpt lat="43.61321" lon="3.82306">
        <ele>51.4</ele>
        <time>2022-03-19T11:17:49Z</time>
      </trkpt>
      <trkpt lat="43.61306" lon="3.82349">
        <ele>51</ele>
        <time>2022-03-19T11:17:59Z</time>
      </trkpt>
      <trkpt lat="43.61309" lon="3.82398">
        <ele>49.2</ele>
        <time>2022-03-19T11:18:09Z</time>
      </trkpt>
      <trkpt lat="43.61305" lon="3.82439">
        <ele>50.5</ele>
        <time>2022-03-19T11:18:19Z</time>
      </trkpt>
      <trkpt lat="43.61287" lon="3.8248">
        <ele>48.8</ele>
        <time>2022-03-19T11:18:29Z</time>
      </trkpt>
      <trkpt lat="43.61261" lon="3.82505">
        <ele>50.7</ele>
        <time>2022-03-19T11:18:39Z</time>
      </trkpt>
      <trkpt lat="43.61231" lon="3.82524">
        <ele>52.5</ele>
        <time>2022-03-19T11:18:49Z</time>
      </trkpt>
      <trkpt lat="43.6121" lon="3.82542">
        <ele>53.4</ele>
        <time>2022-03-19T11:18:59Z</time>
      </trkpt>
      <trkpt lat="43.61198" lon="3.82589">
        <ele>54.4</ele>
        <time>2022-03-19T11:19:09Z</time>
      </trkpt>
      <trkpt lat="43.61192" lon="3.82632">
        <ele>54.9</ele>
        <time>2022-03-19T11:19:19Z</time>
      </trkpt>
      <trkpt lat="43.61182" lon="3.8268">
        <ele>54.8</ele>
        <time>2022-03-19T11:19:29Z</time>
      </trkpt>
      <trkpt lat="43.61174" lon="3.82731">
        <ele>55.1</ele>
        <time>2022-03-19T11:19:39Z</time>
      </trkpt>
    </trkseg>
  </trk>
</gpx>